<?xml version="1.0" encoding="UTF-8" standalone="no" ?>
<gpx xmlns="http://www.topografix.com/GPX/1/1" creator="MapSource 6.16.3" version="1.1" xmlns:xsi="http://www.w3.org/2001/XMLSchema-instance" xsi:schemaLocation="http://www.topografix.com/GPX/1/1 http://www.topografix.com/GPX/1/1/gpx.xsd">

  <metadata>
    <link href="http://www.garmin.com">
      <text>Garmin International</text>
    </link>
    <time>2016-09-17T07:41:44Z</time>
    <bounds maxlat="45.844144821166992" maxlon="9.206221103668213" minlat="45.800328254699707" minlon="9.177725315093994"/>
  </metadata>

  <wpt lat="45.843999981880188" lon="9.194633373990655">
    <name>CAPANNA MARA</name>
    <sym>Summit</sym>
    <extensions>
      <gpxx:WaypointExtension xmlns:gpxx="http://www.garmin.com/xmlschemas/GpxExtensions/v3">
        <gpxx:DisplayMode>SymbolAndName</gpxx:DisplayMode>
      </gpxx:WaypointExtension>
    </extensions>
  </wpt>

  <wpt lat="45.80078330822289" lon="9.184483308345079">
    <name>PARTENZA / ARRIVO</name>
    <sym>Trail Head</sym>
    <extensions>
      <gpxx:WaypointExtension xmlns:gpxx="http://www.garmin.com/xmlschemas/GpxExtensions/v3">
        <gpxx:DisplayMode>SymbolAndName</gpxx:DisplayMode>
      </gpxx:WaypointExtension>
    </extensions>
  </wpt>

  <trk>
    <name>ACTIVE LOG</name>
    <trkseg>
      <trkpt lat="45.800778865814209" lon="9.184484481811523">
        <ele>437.537109375</ele>
        <time>2006-01-08T09:09:52Z</time>
      </trkpt>
      <trkpt lat="45.800714492797852" lon="9.184355735778809">
        <ele>427.443359375</ele>
        <time>2006-01-08T09:10:23Z</time>
      </trkpt>
      <trkpt lat="45.800693035125732" lon="9.184248447418213">
        <ele>426.9627685546875</ele>
        <time>2006-01-08T09:10:28Z</time>
      </trkpt>
      <trkpt lat="45.800564289093018" lon="9.183862209320068">
        <ele>424.0787353515625</ele>
        <time>2006-01-08T09:10:42Z</time>
      </trkpt>
      <trkpt lat="45.800650119781494" lon="9.183690547943115">
        <ele>423.5980224609375</ele>
        <time>2006-01-08T09:10:50Z</time>
      </trkpt>
      <trkpt lat="45.800821781158447" lon="9.183411598205566">
        <ele>424.5594482421875</ele>
        <time>2006-01-08T09:11:02Z</time>
      </trkpt>
      <trkpt lat="45.800843238830566" lon="9.183390140533447">
        <ele>424.0787353515625</ele>
        <time>2006-01-08T09:11:03Z</time>
      </trkpt>
      <trkpt lat="45.800971984863281" lon="9.183475971221924">
        <ele>424.5594482421875</ele>
        <time>2006-01-08T09:11:09Z</time>
      </trkpt>
      <trkpt lat="45.801272392272949" lon="9.183883666992188">
        <ele>424.5594482421875</ele>
        <time>2006-01-08T09:11:25Z</time>
      </trkpt>
      <trkpt lat="45.80150842666626" lon="9.184226989746094">
        <ele>426.0013427734375</ele>
        <time>2006-01-08T09:11:39Z</time>
      </trkpt>
      <trkpt lat="45.801701545715332" lon="9.184634685516357">
        <ele>427.443359375</ele>
        <time>2006-01-08T09:11:53Z</time>
      </trkpt>
      <trkpt lat="45.801873207092285" lon="9.184935092926025">
        <ele>428.4046630859375</ele>
        <time>2006-01-08T09:12:05Z</time>
      </trkpt>
      <trkpt lat="45.802023410797119" lon="9.185171127319336">
        <ele>429.8465576171875</ele>
        <time>2006-01-08T09:12:15Z</time>
      </trkpt>
      <trkpt lat="45.802173614501953" lon="9.18532133102417">
        <ele>432.25</ele>
        <time>2006-01-08T09:12:25Z</time>
      </trkpt>
      <trkpt lat="45.80225944519043" lon="9.185342788696289">
        <ele>432.730712890625</ele>
        <time>2006-01-08T09:12:29Z</time>
      </trkpt>
      <trkpt lat="45.802323818206787" lon="9.185299873352051">
        <ele>433.2113037109375</ele>
        <time>2006-01-08T09:12:34Z</time>
      </trkpt>
      <trkpt lat="45.802366733551025" lon="9.185171127319336">
        <ele>433.2113037109375</ele>
        <time>2006-01-08T09:12:39Z</time>
      </trkpt>
      <trkpt lat="45.802173614501953" lon="9.184634685516357">
        <ele>433.2113037109375</ele>
        <time>2006-01-08T09:12:57Z</time>
      </trkpt>
      <trkpt lat="45.801980495452881" lon="9.184119701385498">
        <ele>433.2113037109375</ele>
        <time>2006-01-08T09:13:13Z</time>
      </trkpt>
      <trkpt lat="45.801787376403809" lon="9.183733463287354">
        <ele>432.730712890625</ele>
        <time>2006-01-08T09:13:26Z</time>
      </trkpt>
      <trkpt lat="45.801615715026855" lon="9.183347225189209">
        <ele>432.730712890625</ele>
        <time>2006-01-08T09:13:39Z</time>
      </trkpt>
      <trkpt lat="45.801401138305664" lon="9.182896614074707">
        <ele>435.1339111328125</ele>
        <time>2006-01-08T09:13:55Z</time>
      </trkpt>
      <trkpt lat="45.801272392272949" lon="9.18257474899292">
        <ele>438.9791259765625</ele>
        <time>2006-01-08T09:14:06Z</time>
      </trkpt>
      <trkpt lat="45.801165103912354" lon="9.182252883911133">
        <ele>440.90185546875</ele>
        <time>2006-01-08T09:14:17Z</time>
      </trkpt>
      <trkpt lat="45.8009934425354" lon="9.181716442108154">
        <ele>441.3824462890625</ele>
        <time>2006-01-08T09:14:33Z</time>
      </trkpt>
      <trkpt lat="45.800886154174805" lon="9.181308746337891">
        <ele>441.8631591796875</ele>
        <time>2006-01-08T09:14:45Z</time>
      </trkpt>
      <trkpt lat="45.800714492797852" lon="9.180879592895508">
        <ele>442.3438720703125</ele>
        <time>2006-01-08T09:14:58Z</time>
      </trkpt>
      <trkpt lat="45.800607204437256" lon="9.18057918548584">
        <ele>443.3050537109375</ele>
        <time>2006-01-08T09:15:08Z</time>
      </trkpt>
      <trkpt lat="45.800478458404541" lon="9.180235862731934">
        <ele>444.2664794921875</ele>
        <time>2006-01-08T09:15:19Z</time>
      </trkpt>
      <trkpt lat="45.800328254699707" lon="9.179785251617432">
        <ele>444.7470703125</ele>
        <time>2006-01-08T09:15:33Z</time>
      </trkpt>
      <trkpt lat="45.800328254699707" lon="9.179420471191406">
        <ele>444.7470703125</ele>
        <time>2006-01-08T09:15:46Z</time>
      </trkpt>
      <trkpt lat="45.800328254699707" lon="9.179012775421143">
        <ele>445.7083740234375</ele>
        <time>2006-01-08T09:16:02Z</time>
      </trkpt>
      <trkpt lat="45.800349712371826" lon="9.178669452667236">
        <ele>446.1890869140625</ele>
        <time>2006-01-08T09:16:18Z</time>
      </trkpt>
      <trkpt lat="45.800457000732422" lon="9.178476333618164">
        <ele>447.6309814453125</ele>
        <time>2006-01-08T09:16:32Z</time>
      </trkpt>
      <trkpt lat="45.800735950469971" lon="9.178218841552734">
        <ele>447.6309814453125</ele>
        <time>2006-01-08T09:16:59Z</time>
      </trkpt>
      <trkpt lat="45.80101490020752" lon="9.178240299224854">
        <ele>447.6309814453125</ele>
        <time>2006-01-08T09:17:19Z</time>
      </trkpt>
      <trkpt lat="45.801401138305664" lon="9.178154468536377">
        <ele>447.6309814453125</ele>
        <time>2006-01-08T09:18:01Z</time>
      </trkpt>
      <trkpt lat="45.802602767944336" lon="9.178133010864258">
        <ele>447.6309814453125</ele>
        <time>2006-01-08T09:18:06Z</time>
      </trkpt>
      <trkpt lat="45.802538394927979" lon="9.178197383880615">
        <ele>447.6309814453125</ele>
        <time>2006-01-08T09:18:26Z</time>
      </trkpt>
      <trkpt lat="45.80275297164917" lon="9.178111553192139">
        <ele>447.6309814453125</ele>
        <time>2006-01-08T09:18:47Z</time>
      </trkpt>
      <trkpt lat="45.803310871124268" lon="9.177725315093994">
        <ele>447.6309814453125</ele>
        <time>2006-01-08T09:18:53Z</time>
      </trkpt>
      <trkpt lat="45.802667140960693" lon="9.178133010864258">
        <ele>447.6309814453125</ele>
        <time>2006-01-08T09:19:00Z</time>
      </trkpt>
      <trkpt lat="45.802645683288574" lon="9.17832612991333">
        <ele>447.6309814453125</ele>
        <time>2006-01-08T09:19:22Z</time>
      </trkpt>
      <trkpt lat="45.802409648895264" lon="9.178540706634522">
        <ele>447.6309814453125</ele>
        <time>2006-01-08T09:19:37Z</time>
      </trkpt>
      <trkpt lat="45.802066326141357" lon="9.178755283355713">
        <ele>505.3101806640625</ele>
        <time>2006-01-08T09:19:44Z</time>
      </trkpt>
      <trkpt lat="45.801808834075928" lon="9.178991317749023">
        <ele>498.5809326171875</ele>
        <time>2006-01-08T09:19:58Z</time>
      </trkpt>
      <trkpt lat="45.801658630371094" lon="9.17933464050293">
        <ele>499.0615234375</ele>
        <time>2006-01-08T09:20:15Z</time>
      </trkpt>
      <trkpt lat="45.801680088043213" lon="9.179635047912598">
        <ele>500.984130859375</ele>
        <time>2006-01-08T09:20:32Z</time>
      </trkpt>
      <trkpt lat="45.801787376403809" lon="9.179742336273193">
        <ele>501.945556640625</ele>
        <time>2006-01-08T09:20:44Z</time>
      </trkpt>
      <trkpt lat="45.802001953125" lon="9.179763793945313">
        <ele>504.8294677734375</ele>
        <time>2006-01-08T09:21:02Z</time>
      </trkpt>
      <trkpt lat="45.802173614501953" lon="9.179699420928955">
        <ele>507.2327880859375</ele>
        <time>2006-01-08T09:21:13Z</time>
      </trkpt>
      <trkpt lat="45.802323818206787" lon="9.179613590240479">
        <ele>507.7135009765625</ele>
        <time>2006-01-08T09:21:25Z</time>
      </trkpt>
      <trkpt lat="45.80249547958374" lon="9.179549217224121">
        <ele>508.6746826171875</ele>
        <time>2006-01-08T09:21:38Z</time>
      </trkpt>
      <trkpt lat="45.802688598632813" lon="9.179463386535645">
        <ele>510.5972900390625</ele>
        <time>2006-01-08T09:21:51Z</time>
      </trkpt>
      <trkpt lat="45.802903175354004" lon="9.179399013519287">
        <ele>512.0394287109375</ele>
        <time>2006-01-08T09:22:05Z</time>
      </trkpt>
      <trkpt lat="45.803074836730957" lon="9.179313182830811">
        <ele>513.9620361328125</ele>
        <time>2006-01-08T09:22:18Z</time>
      </trkpt>
      <trkpt lat="45.803289413452148" lon="9.179184436798096">
        <ele>513.9620361328125</ele>
        <time>2006-01-08T09:22:37Z</time>
      </trkpt>
      <trkpt lat="45.803461074829102" lon="9.179120063781738">
        <ele>515.8846435546875</ele>
        <time>2006-01-08T09:22:51Z</time>
      </trkpt>
      <trkpt lat="45.803632736206055" lon="9.179098606109619">
        <ele>518.287841796875</ele>
        <time>2006-01-08T09:23:08Z</time>
      </trkpt>
      <trkpt lat="45.80376148223877" lon="9.179184436798096">
        <ele>520.2105712890625</ele>
        <time>2006-01-08T09:23:20Z</time>
      </trkpt>
      <trkpt lat="45.803933143615723" lon="9.179270267486572">
        <ele>523.0946044921875</ele>
        <time>2006-01-08T09:23:33Z</time>
      </trkpt>
      <trkpt lat="45.804061889648438" lon="9.179313182830811">
        <ele>523.5751953125</ele>
        <time>2006-01-08T09:23:43Z</time>
      </trkpt>
      <trkpt lat="45.804190635681152" lon="9.179399013519287">
        <ele>525.9783935546875</ele>
        <time>2006-01-08T09:23:56Z</time>
      </trkpt>
      <trkpt lat="45.804383754730225" lon="9.179377555847168">
        <ele>528.3818359375</ele>
        <time>2006-01-08T09:24:12Z</time>
      </trkpt>
      <trkpt lat="45.804533958435059" lon="9.179291725158691">
        <ele>531.2657470703125</ele>
        <time>2006-01-08T09:24:30Z</time>
      </trkpt>
      <trkpt lat="45.80474853515625" lon="9.179205894470215">
        <ele>533.6689453125</ele>
        <time>2006-01-08T09:24:47Z</time>
      </trkpt>
      <trkpt lat="45.80500602722168" lon="9.179141521453857">
        <ele>533.6689453125</ele>
        <time>2006-01-08T09:25:04Z</time>
      </trkpt>
      <trkpt lat="45.805370807647705" lon="9.179012775421143">
        <ele>533.6689453125</ele>
        <time>2006-01-08T09:25:30Z</time>
      </trkpt>
      <trkpt lat="45.805671215057373" lon="9.178948402404785">
        <ele>533.6689453125</ele>
        <time>2006-01-08T09:25:50Z</time>
      </trkpt>
      <trkpt lat="45.806100368499756" lon="9.178798198699951">
        <ele>533.6689453125</ele>
        <time>2006-01-08T09:26:21Z</time>
      </trkpt>
      <trkpt lat="45.806057453155518" lon="9.178755283355713">
        <ele>533.6689453125</ele>
        <time>2006-01-08T09:26:25Z</time>
      </trkpt>
      <trkpt lat="45.805649757385254" lon="9.178712368011475">
        <ele>536.5531005859375</ele>
        <time>2006-01-08T09:26:52Z</time>
      </trkpt>
      <trkpt lat="45.805435180664063" lon="9.178647994995117">
        <ele>541.8402099609375</ele>
        <time>2006-01-08T09:27:07Z</time>
      </trkpt>
      <trkpt lat="45.805177688598633" lon="9.17858362197876">
        <ele>545.685546875</ele>
        <time>2006-01-08T09:27:23Z</time>
      </trkpt>
      <trkpt lat="45.804920196533203" lon="9.178454875946045">
        <ele>547.12744140625</ele>
        <time>2006-01-08T09:27:40Z</time>
      </trkpt>
      <trkpt lat="45.804727077484131" lon="9.178390502929688">
        <ele>549.050048828125</ele>
        <time>2006-01-08T09:27:56Z</time>
      </trkpt>
      <trkpt lat="45.804684162139893" lon="9.178261756896973">
        <ele>549.53076171875</ele>
        <time>2006-01-08T09:28:10Z</time>
      </trkpt>
      <trkpt lat="45.804727077484131" lon="9.178261756896973">
        <ele>549.050048828125</ele>
        <time>2006-01-08T09:28:21Z</time>
      </trkpt>
      <trkpt lat="45.804812908172607" lon="9.178283214569092">
        <ele>550.4921875</ele>
        <time>2006-01-08T09:28:28Z</time>
      </trkpt>
      <trkpt lat="45.804920196533203" lon="9.178304672241211">
        <ele>551.93408203125</ele>
        <time>2006-01-08T09:28:38Z</time>
      </trkpt>
      <trkpt lat="45.805134773254395" lon="9.178283214569092">
        <ele>552.41455078125</ele>
        <time>2006-01-08T09:28:54Z</time>
      </trkpt>
      <trkpt lat="45.805370807647705" lon="9.178240299224854">
        <ele>555.779296875</ele>
        <time>2006-01-08T09:29:07Z</time>
      </trkpt>
      <trkpt lat="45.805585384368896" lon="9.178175926208496">
        <ele>556.260009765625</ele>
        <time>2006-01-08T09:29:20Z</time>
      </trkpt>
      <trkpt lat="45.805885791778564" lon="9.17809009552002">
        <ele>560.105224609375</ele>
        <time>2006-01-08T09:29:42Z</time>
      </trkpt>
      <trkpt lat="45.806057453155518" lon="9.177961349487305">
        <ele>559.14404296875</ele>
        <time>2006-01-08T09:29:57Z</time>
      </trkpt>
      <trkpt lat="45.806186199188232" lon="9.177811145782471">
        <ele>561.54736328125</ele>
        <time>2006-01-08T09:30:16Z</time>
      </trkpt>
      <trkpt lat="45.806207656860352" lon="9.177768230438232">
        <ele>561.54736328125</ele>
        <time>2006-01-08T09:30:22Z</time>
      </trkpt>
      <trkpt lat="45.806550979614258" lon="9.177854061126709">
        <ele>561.54736328125</ele>
        <time>2006-01-08T09:30:40Z</time>
      </trkpt>
      <trkpt lat="45.806915760040283" lon="9.178047180175781">
        <ele>561.54736328125</ele>
        <time>2006-01-08T09:31:05Z</time>
      </trkpt>
      <trkpt lat="45.807301998138428" lon="9.178240299224854">
        <ele>561.54736328125</ele>
        <time>2006-01-08T09:31:28Z</time>
      </trkpt>
      <trkpt lat="45.807473659515381" lon="9.178369045257568">
        <ele>561.54736328125</ele>
        <time>2006-01-08T09:31:38Z</time>
      </trkpt>
      <trkpt lat="45.807666778564453" lon="9.178647994995117">
        <ele>561.54736328125</ele>
        <time>2006-01-08T09:31:54Z</time>
      </trkpt>
      <trkpt lat="45.807731151580811" lon="9.178776741027832">
        <ele>563.950439453125</ele>
        <time>2006-01-08T09:32:01Z</time>
      </trkpt>
      <trkpt lat="45.807709693908691" lon="9.179034233093262">
        <ele>575.486328125</ele>
        <time>2006-01-08T09:32:14Z</time>
      </trkpt>
      <trkpt lat="45.807774066925049" lon="9.179184436798096">
        <ele>575.967041015625</ele>
        <time>2006-01-08T09:32:22Z</time>
      </trkpt>
      <trkpt lat="45.807774066925049" lon="9.179441928863525">
        <ele>575.967041015625</ele>
        <time>2006-01-08T09:32:35Z</time>
      </trkpt>
      <trkpt lat="45.807688236236572" lon="9.179871082305908">
        <ele>576.928466796875</ele>
        <time>2006-01-08T09:33:00Z</time>
      </trkpt>
      <trkpt lat="45.807623863220215" lon="9.180064201354981">
        <ele>577.4091796875</ele>
        <time>2006-01-08T09:33:12Z</time>
      </trkpt>
      <trkpt lat="45.807580947875977" lon="9.180107116699219">
        <ele>577.4091796875</ele>
        <time>2006-01-08T09:33:15Z</time>
      </trkpt>
      <trkpt lat="45.8074951171875" lon="9.18032169342041">
        <ele>577.4091796875</ele>
        <time>2006-01-08T09:33:28Z</time>
      </trkpt>
      <trkpt lat="45.807301998138428" lon="9.180772304534912">
        <ele>585.099609375</ele>
        <time>2006-01-08T09:33:51Z</time>
      </trkpt>
      <trkpt lat="45.807301998138428" lon="9.181201457977295">
        <ele>592.790283203125</ele>
        <time>2006-01-08T09:34:13Z</time>
      </trkpt>
      <trkpt lat="45.807366371154785" lon="9.181673526763916">
        <ele>599.03857421875</ele>
        <time>2006-01-08T09:34:38Z</time>
      </trkpt>
      <trkpt lat="45.807538032531738" lon="9.182639122009277">
        <ele>603.364501953125</ele>
        <time>2006-01-08T09:35:32Z</time>
      </trkpt>
      <trkpt lat="45.807709693908691" lon="9.182810783386231">
        <ele>608.17138671875</ele>
        <time>2006-01-08T09:35:47Z</time>
      </trkpt>
      <trkpt lat="45.808010101318359" lon="9.182918071746826">
        <ele>617.3037109375</ele>
        <time>2006-01-08T09:36:06Z</time>
      </trkpt>
      <trkpt lat="45.80848217010498" lon="9.18306827545166">
        <ele>623.552490234375</ele>
        <time>2006-01-08T09:36:37Z</time>
      </trkpt>
      <trkpt lat="45.808804035186768" lon="9.183132648468018">
        <ele>630.76220703125</ele>
        <time>2006-01-08T09:36:58Z</time>
      </trkpt>
      <trkpt lat="45.809104442596436" lon="9.183218479156494">
        <ele>632.2041015625</ele>
        <time>2006-01-08T09:37:23Z</time>
      </trkpt>
      <trkpt lat="45.80949068069458" lon="9.183347225189209">
        <ele>632.684814453125</ele>
        <time>2006-01-08T09:38:05Z</time>
      </trkpt>
      <trkpt lat="45.809876918792725" lon="9.183261394500732">
        <ele>632.684814453125</ele>
        <time>2006-01-08T09:38:07Z</time>
      </trkpt>
      <trkpt lat="45.809876918792725" lon="9.183304309844971">
        <ele>632.684814453125</ele>
        <time>2006-01-08T09:38:12Z</time>
      </trkpt>
      <trkpt lat="45.810220241546631" lon="9.183840751647949">
        <ele>648.54638671875</ele>
        <time>2006-01-08T09:38:40Z</time>
      </trkpt>
      <trkpt lat="45.811035633087158" lon="9.185214042663574">
        <ele>649.5078125</ele>
        <time>2006-01-08T09:40:26Z</time>
      </trkpt>
      <trkpt lat="45.811378955841064" lon="9.185535907745361">
        <ele>653.353271484375</ele>
        <time>2006-01-08T09:40:36Z</time>
      </trkpt>
      <trkpt lat="45.811550617218018" lon="9.185793399810791">
        <ele>652.87255859375</ele>
        <time>2006-01-08T09:40:57Z</time>
      </trkpt>
      <trkpt lat="45.811786651611328" lon="9.186158180236816">
        <ele>652.87255859375</ele>
        <time>2006-01-08T09:41:28Z</time>
      </trkpt>
      <trkpt lat="45.81125020980835" lon="9.186673164367676">
        <ele>657.198486328125</ele>
        <time>2006-01-08T09:42:11Z</time>
      </trkpt>
      <trkpt lat="45.811357498168945" lon="9.186866283416748">
        <ele>659.12109375</ele>
        <time>2006-01-08T09:42:27Z</time>
      </trkpt>
      <trkpt lat="45.811336040496826" lon="9.186952114105225">
        <ele>663.927490234375</ele>
        <time>2006-01-08T09:42:34Z</time>
      </trkpt>
      <trkpt lat="45.811314582824707" lon="9.187102317810059">
        <ele>668.734375</ele>
        <time>2006-01-08T09:42:44Z</time>
      </trkpt>
      <trkpt lat="45.811293125152588" lon="9.18731689453125">
        <ele>673.060302734375</ele>
        <time>2006-01-08T09:42:58Z</time>
      </trkpt>
      <trkpt lat="45.811314582824707" lon="9.187402725219727">
        <ele>677.38623046875</ele>
        <time>2006-01-08T09:43:06Z</time>
      </trkpt>
      <trkpt lat="45.811378955841064" lon="9.187402725219727">
        <ele>678.828125</ele>
        <time>2006-01-08T09:43:14Z</time>
      </trkpt>
      <trkpt lat="45.811400413513184" lon="9.187188148498535">
        <ele>682.192626953125</ele>
        <time>2006-01-08T09:43:26Z</time>
      </trkpt>
      <trkpt lat="45.811443328857422" lon="9.186887741088867">
        <ele>684.59619140625</ele>
        <time>2006-01-08T09:43:43Z</time>
      </trkpt>
      <trkpt lat="45.811507701873779" lon="9.186630249023438">
        <ele>686.518798828125</ele>
        <time>2006-01-08T09:43:59Z</time>
      </trkpt>
      <trkpt lat="45.811593532562256" lon="9.186394214630127">
        <ele>688.44140625</ele>
        <time>2006-01-08T09:44:17Z</time>
      </trkpt>
      <trkpt lat="45.811679363250732" lon="9.186201095581055">
        <ele>691.805908203125</ele>
        <time>2006-01-08T09:44:31Z</time>
      </trkpt>
      <trkpt lat="45.81174373626709" lon="9.186050891876221">
        <ele>690.364013671875</ele>
        <time>2006-01-08T09:44:42Z</time>
      </trkpt>
      <trkpt lat="45.811829566955566" lon="9.185729026794434">
        <ele>691.805908203125</ele>
        <time>2006-01-08T09:45:03Z</time>
      </trkpt>
      <trkpt lat="45.811893939971924" lon="9.185557365417481">
        <ele>692.767333984375</ele>
        <time>2006-01-08T09:45:16Z</time>
      </trkpt>
      <trkpt lat="45.8119797706604" lon="9.18532133102417">
        <ele>693.247802734375</ele>
        <time>2006-01-08T09:45:31Z</time>
      </trkpt>
      <trkpt lat="45.812022686004639" lon="9.185128211975098">
        <ele>693.247802734375</ele>
        <time>2006-01-08T09:45:43Z</time>
      </trkpt>
      <trkpt lat="45.812087059020996" lon="9.184913635253906">
        <ele>695.17041015625</ele>
        <time>2006-01-08T09:45:56Z</time>
      </trkpt>
      <trkpt lat="45.812129974365234" lon="9.184720516204834">
        <ele>697.57373046875</ele>
        <time>2006-01-08T09:46:09Z</time>
      </trkpt>
      <trkpt lat="45.812151432037354" lon="9.184677600860596">
        <ele>698.534912109375</ele>
        <time>2006-01-08T09:46:13Z</time>
      </trkpt>
      <trkpt lat="45.812258720397949" lon="9.184463024139404">
        <ele>699.97705078125</ele>
        <time>2006-01-08T09:46:29Z</time>
      </trkpt>
      <trkpt lat="45.812301635742188" lon="9.184420108795166">
        <ele>700.4580078125</ele>
        <time>2006-01-08T09:46:33Z</time>
      </trkpt>
      <trkpt lat="45.812430381774902" lon="9.184505939483643">
        <ele>701.419189453125</ele>
        <time>2006-01-08T09:46:43Z</time>
      </trkpt>
      <trkpt lat="45.812408924102783" lon="9.184677600860596">
        <ele>703.822509765625</ele>
        <time>2006-01-08T09:46:54Z</time>
      </trkpt>
      <trkpt lat="45.812323093414307" lon="9.184913635253906">
        <ele>704.78369140625</ele>
        <time>2006-01-08T09:47:11Z</time>
      </trkpt>
      <trkpt lat="45.812301635742188" lon="9.185171127319336">
        <ele>706.2255859375</ele>
        <time>2006-01-08T09:47:27Z</time>
      </trkpt>
      <trkpt lat="45.812323093414307" lon="9.185428619384766">
        <ele>706.706298828125</ele>
        <time>2006-01-08T09:47:43Z</time>
      </trkpt>
      <trkpt lat="45.812323093414307" lon="9.185729026794434">
        <ele>707.18701171875</ele>
        <time>2006-01-08T09:48:02Z</time>
      </trkpt>
      <trkpt lat="45.812323093414307" lon="9.185922145843506">
        <ele>707.18701171875</ele>
        <time>2006-01-08T09:48:14Z</time>
      </trkpt>
      <trkpt lat="45.812323093414307" lon="9.186093807220459">
        <ele>707.667724609375</ele>
        <time>2006-01-08T09:48:26Z</time>
      </trkpt>
      <trkpt lat="45.812323093414307" lon="9.186265468597412">
        <ele>710.07080078125</ele>
        <time>2006-01-08T09:48:36Z</time>
      </trkpt>
      <trkpt lat="45.812301635742188" lon="9.186501502990723">
        <ele>712.47412109375</ele>
        <time>2006-01-08T09:48:50Z</time>
      </trkpt>
      <trkpt lat="45.812258720397949" lon="9.186716079711914">
        <ele>717.281005859375</ele>
        <time>2006-01-08T09:49:04Z</time>
      </trkpt>
      <trkpt lat="45.81223726272583" lon="9.186801910400391">
        <ele>718.2421875</ele>
        <time>2006-01-08T09:49:09Z</time>
      </trkpt>
      <trkpt lat="45.81223726272583" lon="9.187102317810059">
        <ele>718.722900390625</ele>
        <time>2006-01-08T09:49:28Z</time>
      </trkpt>
      <trkpt lat="45.812280178070068" lon="9.187359809875488">
        <ele>719.684326171875</ele>
        <time>2006-01-08T09:49:45Z</time>
      </trkpt>
      <trkpt lat="45.812301635742188" lon="9.187595844268799">
        <ele>722.568115234375</ele>
        <time>2006-01-08T09:49:59Z</time>
      </trkpt>
      <trkpt lat="45.812344551086426" lon="9.18781042098999">
        <ele>724.49072265625</ele>
        <time>2006-01-08T09:50:14Z</time>
      </trkpt>
      <trkpt lat="45.812430381774902" lon="9.18806791305542">
        <ele>728.3359375</ele>
        <time>2006-01-08T09:50:34Z</time>
      </trkpt>
      <trkpt lat="45.81249475479126" lon="9.188110828399658">
        <ele>731.219970703125</ele>
        <time>2006-01-08T09:50:42Z</time>
      </trkpt>
      <trkpt lat="45.812580585479736" lon="9.187874794006348">
        <ele>733.623291015625</ele>
        <time>2006-01-08T09:50:57Z</time>
      </trkpt>
      <trkpt lat="45.812559127807617" lon="9.187681674957275">
        <ele>735.0654296875</ele>
        <time>2006-01-08T09:51:10Z</time>
      </trkpt>
      <trkpt lat="45.812473297119141" lon="9.187402725219727">
        <ele>736.98779296875</ele>
        <time>2006-01-08T09:51:26Z</time>
      </trkpt>
      <trkpt lat="45.812473297119141" lon="9.187231063842773">
        <ele>738.91064453125</ele>
        <time>2006-01-08T09:51:36Z</time>
      </trkpt>
      <trkpt lat="45.812537670135498" lon="9.187037944793701">
        <ele>738.429931640625</ele>
        <time>2006-01-08T09:51:49Z</time>
      </trkpt>
      <trkpt lat="45.812602043151855" lon="9.186844825744629">
        <ele>738.91064453125</ele>
        <time>2006-01-08T09:52:01Z</time>
      </trkpt>
      <trkpt lat="45.812709331512451" lon="9.186673164367676">
        <ele>738.91064453125</ele>
        <time>2006-01-08T09:52:14Z</time>
      </trkpt>
      <trkpt lat="45.812773704528809" lon="9.186480045318604">
        <ele>741.79443359375</ele>
        <time>2006-01-08T09:52:27Z</time>
      </trkpt>
      <trkpt lat="45.812880992889404" lon="9.18630838394165">
        <ele>739.871826171875</ele>
        <time>2006-01-08T09:52:40Z</time>
      </trkpt>
      <trkpt lat="45.813031196594238" lon="9.186093807220459">
        <ele>737.94921875</ele>
        <time>2006-01-08T09:52:57Z</time>
      </trkpt>
      <trkpt lat="45.813159942626953" lon="9.185900688171387">
        <ele>737.94921875</ele>
        <time>2006-01-08T09:53:10Z</time>
      </trkpt>
      <trkpt lat="45.813267230987549" lon="9.185771942138672">
        <ele>737.468505859375</ele>
        <time>2006-01-08T09:53:21Z</time>
      </trkpt>
      <trkpt lat="45.813374519348145" lon="9.185535907745361">
        <ele>741.313720703125</ele>
        <time>2006-01-08T09:53:40Z</time>
      </trkpt>
      <trkpt lat="45.81348180770874" lon="9.185514450073242">
        <ele>741.313720703125</ele>
        <time>2006-01-08T09:53:50Z</time>
      </trkpt>
      <trkpt lat="45.813460350036621" lon="9.185643196105957">
        <ele>744.19775390625</ele>
        <time>2006-01-08T09:53:57Z</time>
      </trkpt>
      <trkpt lat="45.813353061676025" lon="9.185900688171387">
        <ele>750.446533203125</ele>
        <time>2006-01-08T09:54:12Z</time>
      </trkpt>
      <trkpt lat="45.813288688659668" lon="9.186201095581055">
        <ele>754.772216796875</ele>
        <time>2006-01-08T09:54:29Z</time>
      </trkpt>
      <trkpt lat="45.813288688659668" lon="9.18632984161377">
        <ele>756.69482421875</ele>
        <time>2006-01-08T09:54:36Z</time>
      </trkpt>
      <trkpt lat="45.813374519348145" lon="9.186608791351318">
        <ele>759.578857421875</ele>
        <time>2006-01-08T09:54:53Z</time>
      </trkpt>
      <trkpt lat="45.813460350036621" lon="9.186758995056152">
        <ele>761.982177734375</ele>
        <time>2006-01-08T09:55:04Z</time>
      </trkpt>
      <trkpt lat="45.813589096069336" lon="9.186844825744629">
        <ele>763.424072265625</ele>
        <time>2006-01-08T09:55:15Z</time>
      </trkpt>
      <trkpt lat="45.813782215118408" lon="9.186909198760986">
        <ele>763.424072265625</ele>
        <time>2006-01-08T09:55:33Z</time>
      </trkpt>
      <trkpt lat="45.814039707183838" lon="9.186866283416748">
        <ele>765.82763671875</ele>
        <time>2006-01-08T09:55:56Z</time>
      </trkpt>
      <trkpt lat="45.814275741577148" lon="9.186909198760986">
        <ele>770.1533203125</ele>
        <time>2006-01-08T09:56:19Z</time>
      </trkpt>
      <trkpt lat="45.814511775970459" lon="9.186995029449463">
        <ele>769.192138671875</ele>
        <time>2006-01-08T09:56:39Z</time>
      </trkpt>
      <trkpt lat="45.814683437347412" lon="9.187037944793701">
        <ele>771.59521484375</ele>
        <time>2006-01-08T09:56:58Z</time>
      </trkpt>
      <trkpt lat="45.81472635269165" lon="9.187037944793701">
        <ele>771.59521484375</ele>
        <time>2006-01-08T09:57:02Z</time>
      </trkpt>
      <trkpt lat="45.814919471740723" lon="9.186952114105225">
        <ele>772.075927734375</ele>
        <time>2006-01-08T09:57:19Z</time>
      </trkpt>
      <trkpt lat="45.815176963806152" lon="9.18682336807251">
        <ele>776.882568359375</ele>
        <time>2006-01-08T09:57:43Z</time>
      </trkpt>
      <trkpt lat="45.815370082855225" lon="9.186737537384033">
        <ele>779.766357421875</ele>
        <time>2006-01-08T09:58:01Z</time>
      </trkpt>
      <trkpt lat="45.815649032592773" lon="9.186673164367676">
        <ele>784.092529296875</ele>
        <time>2006-01-08T09:58:24Z</time>
      </trkpt>
      <trkpt lat="45.815927982330322" lon="9.186780452728272">
        <ele>785.053955078125</ele>
        <time>2006-01-08T09:58:47Z</time>
      </trkpt>
      <trkpt lat="45.816035270690918" lon="9.186930656433106">
        <ele>787.937744140625</ele>
        <time>2006-01-08T09:58:59Z</time>
      </trkpt>
      <trkpt lat="45.81622838973999" lon="9.187145233154297">
        <ele>794.666748046875</ele>
        <time>2006-01-08T09:59:20Z</time>
      </trkpt>
      <trkpt lat="45.816378593444824" lon="9.187273979187012">
        <ele>793.70556640625</ele>
        <time>2006-01-08T09:59:34Z</time>
      </trkpt>
      <trkpt lat="45.816507339477539" lon="9.187488555908203">
        <ele>799.4736328125</ele>
        <time>2006-01-08T09:59:50Z</time>
      </trkpt>
      <trkpt lat="45.816571712493896" lon="9.187703132629395">
        <ele>802.838134765625</ele>
        <time>2006-01-08T10:00:02Z</time>
      </trkpt>
      <trkpt lat="45.816679000854492" lon="9.187874794006348">
        <ele>805.72216796875</ele>
        <time>2006-01-08T10:00:15Z</time>
      </trkpt>
      <trkpt lat="45.81674337387085" lon="9.187917709350586">
        <ele>806.20263671875</ele>
        <time>2006-01-08T10:00:21Z</time>
      </trkpt>
      <trkpt lat="45.816807746887207" lon="9.187874794006348">
        <ele>806.683349609375</ele>
        <time>2006-01-08T10:00:27Z</time>
      </trkpt>
      <trkpt lat="45.816807746887207" lon="9.18781042098999">
        <ele>809.086669921875</ele>
        <time>2006-01-08T10:00:33Z</time>
      </trkpt>
      <trkpt lat="45.81674337387085" lon="9.187467098236084">
        <ele>807.644775390625</ele>
        <time>2006-01-08T10:00:50Z</time>
      </trkpt>
      <trkpt lat="45.816679000854492" lon="9.187231063842773">
        <ele>806.683349609375</ele>
        <time>2006-01-08T10:01:03Z</time>
      </trkpt>
      <trkpt lat="45.816550254821777" lon="9.186930656433106">
        <ele>811.00927734375</ele>
        <time>2006-01-08T10:01:19Z</time>
      </trkpt>
      <trkpt lat="45.816507339477539" lon="9.186673164367676">
        <ele>810.0478515625</ele>
        <time>2006-01-08T10:01:32Z</time>
      </trkpt>
      <trkpt lat="45.816593170166016" lon="9.186501502990723">
        <ele>809.5673828125</ele>
        <time>2006-01-08T10:01:44Z</time>
      </trkpt>
      <trkpt lat="45.816786289215088" lon="9.186501502990723">
        <ele>810.0478515625</ele>
        <time>2006-01-08T10:02:00Z</time>
      </trkpt>
      <trkpt lat="45.817022323608398" lon="9.186587333679199">
        <ele>810.528564453125</ele>
        <time>2006-01-08T10:02:18Z</time>
      </trkpt>
      <trkpt lat="45.817322731018066" lon="9.186673164367676">
        <ele>810.528564453125</ele>
        <time>2006-01-08T10:02:37Z</time>
      </trkpt>
      <trkpt lat="45.817515850067139" lon="9.186673164367676">
        <ele>811.489990234375</ele>
        <time>2006-01-08T10:02:53Z</time>
      </trkpt>
      <trkpt lat="45.817687511444092" lon="9.186716079711914">
        <ele>812.93212890625</ele>
        <time>2006-01-08T10:03:09Z</time>
      </trkpt>
      <trkpt lat="45.817945003509521" lon="9.186737537384033">
        <ele>812.93212890625</ele>
        <time>2006-01-08T10:03:39Z</time>
      </trkpt>
      <trkpt lat="45.818009376525879" lon="9.186737537384033">
        <ele>817.738525390625</ele>
        <time>2006-01-08T10:03:51Z</time>
      </trkpt>
      <trkpt lat="45.818202495574951" lon="9.186651706695557">
        <ele>818.21923828125</ele>
        <time>2006-01-08T10:04:15Z</time>
      </trkpt>
      <trkpt lat="45.818374156951904" lon="9.186630249023438">
        <ele>819.661376953125</ele>
        <time>2006-01-08T10:04:26Z</time>
      </trkpt>
      <trkpt lat="45.818631649017334" lon="9.186587333679199">
        <ele>819.1806640625</ele>
        <time>2006-01-08T10:04:39Z</time>
      </trkpt>
      <trkpt lat="45.818803310394287" lon="9.18656587600708">
        <ele>820.62255859375</ele>
        <time>2006-01-08T10:04:48Z</time>
      </trkpt>
      <trkpt lat="45.819060802459717" lon="9.186522960662842">
        <ele>821.103271484375</ele>
        <time>2006-01-08T10:05:02Z</time>
      </trkpt>
      <trkpt lat="45.819253921508789" lon="9.186372756958008">
        <ele>823.02587890625</ele>
        <time>2006-01-08T10:05:17Z</time>
      </trkpt>
      <trkpt lat="45.819404125213623" lon="9.186286926269531">
        <ele>823.506591796875</ele>
        <time>2006-01-08T10:05:30Z</time>
      </trkpt>
      <trkpt lat="45.819575786590576" lon="9.186158180236816">
        <ele>823.506591796875</ele>
        <time>2006-01-08T10:05:45Z</time>
      </trkpt>
      <trkpt lat="45.81972599029541" lon="9.186007976531982">
        <ele>823.987060546875</ele>
        <time>2006-01-08T10:06:01Z</time>
      </trkpt>
      <trkpt lat="45.819940567016602" lon="9.185879230499268">
        <ele>824.4677734375</ele>
        <time>2006-01-08T10:06:20Z</time>
      </trkpt>
      <trkpt lat="45.820090770721436" lon="9.18581485748291">
        <ele>826.390380859375</ele>
        <time>2006-01-08T10:06:35Z</time>
      </trkpt>
      <trkpt lat="45.820326805114746" lon="9.185686111450195">
        <ele>826.87109375</ele>
        <time>2006-01-08T10:06:56Z</time>
      </trkpt>
      <trkpt lat="45.820498466491699" lon="9.185557365417481">
        <ele>829.2744140625</ele>
        <time>2006-01-08T10:07:12Z</time>
      </trkpt>
      <trkpt lat="45.820691585540771" lon="9.185471534729004">
        <ele>829.2744140625</ele>
        <time>2006-01-08T10:07:28Z</time>
      </trkpt>
      <trkpt lat="45.820820331573486" lon="9.185428619384766">
        <ele>831.677734375</ele>
        <time>2006-01-08T10:07:40Z</time>
      </trkpt>
      <trkpt lat="45.82097053527832" lon="9.185364246368408">
        <ele>833.11962890625</ele>
        <time>2006-01-08T10:07:58Z</time>
      </trkpt>
      <trkpt lat="45.821185111999512" lon="9.185342788696289">
        <ele>831.197265625</ele>
        <time>2006-01-08T10:08:15Z</time>
      </trkpt>
      <trkpt lat="45.821464061737061" lon="9.185342788696289">
        <ele>830.716552734375</ele>
        <time>2006-01-08T10:08:34Z</time>
      </trkpt>
      <trkpt lat="45.821743011474609" lon="9.185192584991455">
        <ele>830.716552734375</ele>
        <time>2006-01-08T10:08:57Z</time>
      </trkpt>
      <trkpt lat="45.821936130523682" lon="9.185171127319336">
        <ele>830.23583984375</ele>
        <time>2006-01-08T10:09:09Z</time>
      </trkpt>
      <trkpt lat="45.822129249572754" lon="9.185106754302979">
        <ele>832.63916015625</ele>
        <time>2006-01-08T10:09:21Z</time>
      </trkpt>
      <trkpt lat="45.822300910949707" lon="9.185042381286621">
        <ele>836.484375</ele>
        <time>2006-01-08T10:09:32Z</time>
      </trkpt>
      <trkpt lat="45.822429656982422" lon="9.184956550598145">
        <ele>840.32958984375</ele>
        <time>2006-01-08T10:09:43Z</time>
      </trkpt>
      <trkpt lat="45.822665691375732" lon="9.184913635253906">
        <ele>840.32958984375</ele>
        <time>2006-01-08T10:09:59Z</time>
      </trkpt>
      <trkpt lat="45.822858810424805" lon="9.184720516204834">
        <ele>840.32958984375</ele>
        <time>2006-01-08T10:10:15Z</time>
      </trkpt>
      <trkpt lat="45.823009014129639" lon="9.184527397155762">
        <ele>842.252197265625</ele>
        <time>2006-01-08T10:10:29Z</time>
      </trkpt>
      <trkpt lat="45.823180675506592" lon="9.18431282043457">
        <ele>846.578369140625</ele>
        <time>2006-01-08T10:10:45Z</time>
      </trkpt>
      <trkpt lat="45.823395252227783" lon="9.184269905090332">
        <ele>847.53955078125</ele>
        <time>2006-01-08T10:10:58Z</time>
      </trkpt>
      <trkpt lat="45.823609828948975" lon="9.184226989746094">
        <ele>852.345947265625</ele>
        <time>2006-01-08T10:11:14Z</time>
      </trkpt>
      <trkpt lat="45.823738574981689" lon="9.184119701385498">
        <ele>858.114013671875</ele>
        <time>2006-01-08T10:11:31Z</time>
      </trkpt>
      <trkpt lat="45.823910236358643" lon="9.184098243713379">
        <ele>860.517333984375</ele>
        <time>2006-01-08T10:11:45Z</time>
      </trkpt>
      <trkpt lat="45.824060440063477" lon="9.184033870697022">
        <ele>864.84326171875</ele>
        <time>2006-01-08T10:11:58Z</time>
      </trkpt>
      <trkpt lat="45.824167728424072" lon="9.183926582336426">
        <ele>868.6884765625</ele>
        <time>2006-01-08T10:12:12Z</time>
      </trkpt>
      <trkpt lat="45.824275016784668" lon="9.18381929397583">
        <ele>873.014404296875</ele>
        <time>2006-01-08T10:12:23Z</time>
      </trkpt>
      <trkpt lat="45.824360847473145" lon="9.183776378631592">
        <ele>877.340576171875</ele>
        <time>2006-01-08T10:12:34Z</time>
      </trkpt>
      <trkpt lat="45.82446813583374" lon="9.183926582336426">
        <ele>879.262939453125</ele>
        <time>2006-01-08T10:12:45Z</time>
      </trkpt>
      <trkpt lat="45.82446813583374" lon="9.18407678604126">
        <ele>879.74365234375</ele>
        <time>2006-01-08T10:12:55Z</time>
      </trkpt>
      <trkpt lat="45.824425220489502" lon="9.18433427810669">
        <ele>884.069580078125</ele>
        <time>2006-01-08T10:13:09Z</time>
      </trkpt>
      <trkpt lat="45.824360847473145" lon="9.184548854827881">
        <ele>887.914794921875</ele>
        <time>2006-01-08T10:13:21Z</time>
      </trkpt>
      <trkpt lat="45.824339389801025" lon="9.184741973876953">
        <ele>892.7216796875</ele>
        <time>2006-01-08T10:13:31Z</time>
      </trkpt>
      <trkpt lat="45.824296474456787" lon="9.184956550598145">
        <ele>896.56689453125</ele>
        <time>2006-01-08T10:13:42Z</time>
      </trkpt>
      <trkpt lat="45.824253559112549" lon="9.185192584991455">
        <ele>898.969970703125</ele>
        <time>2006-01-08T10:13:54Z</time>
      </trkpt>
      <trkpt lat="45.824296474456787" lon="9.185428619384766">
        <ele>900.412109375</ele>
        <time>2006-01-08T10:14:07Z</time>
      </trkpt>
      <trkpt lat="45.824425220489502" lon="9.1855788230896">
        <ele>900.892578125</ele>
        <time>2006-01-08T10:14:17Z</time>
      </trkpt>
      <trkpt lat="45.824553966522217" lon="9.185771942138672">
        <ele>901.373291015625</ele>
        <time>2006-01-08T10:14:29Z</time>
      </trkpt>
      <trkpt lat="45.824639797210693" lon="9.185965061187744">
        <ele>901.85400390625</ele>
        <time>2006-01-08T10:14:41Z</time>
      </trkpt>
      <trkpt lat="45.824704170227051" lon="9.185986518859863">
        <ele>901.85400390625</ele>
        <time>2006-01-08T10:14:49Z</time>
      </trkpt>
      <trkpt lat="45.82472562789917" lon="9.185943603515625">
        <ele>899.45068359375</ele>
        <time>2006-01-08T10:15:02Z</time>
      </trkpt>
      <trkpt lat="45.824704170227051" lon="9.185900688171387">
        <ele>892.240966796875</ele>
        <time>2006-01-08T10:15:39Z</time>
      </trkpt>
      <trkpt lat="45.824639797210693" lon="9.185600280761719">
        <ele>885.511474609375</ele>
        <time>2006-01-08T10:38:57Z</time>
      </trkpt>
      <trkpt lat="45.82472562789917" lon="9.185922145843506">
        <ele>886.953369140625</ele>
        <time>2006-01-08T10:39:09Z</time>
      </trkpt>
      <trkpt lat="45.824768543243408" lon="9.186050891876221">
        <ele>890.798583984375</ele>
        <time>2006-01-08T10:39:21Z</time>
      </trkpt>
      <trkpt lat="45.824811458587646" lon="9.186179637908936">
        <ele>892.7216796875</ele>
        <time>2006-01-08T10:39:33Z</time>
      </trkpt>
      <trkpt lat="45.824875831604004" lon="9.186265468597412">
        <ele>895.124755859375</ele>
        <time>2006-01-08T10:39:45Z</time>
      </trkpt>
      <trkpt lat="45.824918746948242" lon="9.186372756958008">
        <ele>896.086181640625</ele>
        <time>2006-01-08T10:39:54Z</time>
      </trkpt>
      <trkpt lat="45.8249831199646" lon="9.186458587646484">
        <ele>897.528076171875</ele>
        <time>2006-01-08T10:40:05Z</time>
      </trkpt>
      <trkpt lat="45.825047492980957" lon="9.186630249023438">
        <ele>898.969970703125</ele>
        <time>2006-01-08T10:40:20Z</time>
      </trkpt>
      <trkpt lat="45.825133323669434" lon="9.186758995056152">
        <ele>901.85400390625</ele>
        <time>2006-01-08T10:40:35Z</time>
      </trkpt>
      <trkpt lat="45.82521915435791" lon="9.186952114105225">
        <ele>902.33447265625</ele>
        <time>2006-01-08T10:40:49Z</time>
      </trkpt>
      <trkpt lat="45.825283527374268" lon="9.187016487121582">
        <ele>902.815185546875</ele>
        <time>2006-01-08T10:41:00Z</time>
      </trkpt>
      <trkpt lat="45.825347900390625" lon="9.187102317810059">
        <ele>904.25732421875</ele>
        <time>2006-01-08T10:41:12Z</time>
      </trkpt>
      <trkpt lat="45.825369358062744" lon="9.187145233154297">
        <ele>900.892578125</ele>
        <time>2006-01-08T10:41:24Z</time>
      </trkpt>
      <trkpt lat="45.825433731079102" lon="9.187209606170654">
        <ele>902.33447265625</ele>
        <time>2006-01-08T10:41:37Z</time>
      </trkpt>
      <trkpt lat="45.82547664642334" lon="9.187273979187012">
        <ele>900.892578125</ele>
        <time>2006-01-08T10:41:47Z</time>
      </trkpt>
      <trkpt lat="45.825541019439697" lon="9.187402725219727">
        <ele>901.85400390625</ele>
        <time>2006-01-08T10:41:58Z</time>
      </trkpt>
      <trkpt lat="45.825648307800293" lon="9.187617301940918">
        <ele>902.815185546875</ele>
        <time>2006-01-08T10:42:13Z</time>
      </trkpt>
      <trkpt lat="45.825755596160889" lon="9.187831878662109">
        <ele>902.815185546875</ele>
        <time>2006-01-08T10:42:25Z</time>
      </trkpt>
      <trkpt lat="45.825948715209961" lon="9.188110828399658">
        <ele>904.25732421875</ele>
        <time>2006-01-08T10:42:40Z</time>
      </trkpt>
      <trkpt lat="45.826013088226318" lon="9.188239574432373">
        <ele>903.776611328125</ele>
        <time>2006-01-08T10:42:46Z</time>
      </trkpt>
      <trkpt lat="45.826163291931152" lon="9.188368320465088">
        <ele>904.25732421875</ele>
        <time>2006-01-08T10:42:59Z</time>
      </trkpt>
      <trkpt lat="45.826313495635986" lon="9.188454151153565">
        <ele>903.776611328125</ele>
        <time>2006-01-08T10:43:10Z</time>
      </trkpt>
      <trkpt lat="45.826442241668701" lon="9.188475608825684">
        <ele>905.218505859375</ele>
        <time>2006-01-08T10:43:21Z</time>
      </trkpt>
      <trkpt lat="45.826592445373535" lon="9.188518524169922">
        <ele>906.660400390625</ele>
        <time>2006-01-08T10:43:33Z</time>
      </trkpt>
      <trkpt lat="45.826678276062012" lon="9.188497066497803">
        <ele>910.025146484375</ele>
        <time>2006-01-08T10:43:41Z</time>
      </trkpt>
      <trkpt lat="45.826807022094727" lon="9.188604354858398">
        <ele>911.46728515625</ele>
        <time>2006-01-08T10:43:55Z</time>
      </trkpt>
      <trkpt lat="45.826849937438965" lon="9.188625812530518">
        <ele>911.46728515625</ele>
        <time>2006-01-08T10:44:09Z</time>
      </trkpt>
      <trkpt lat="45.82697868347168" lon="9.188711643218994">
        <ele>916.273681640625</ele>
        <time>2006-01-08T10:46:02Z</time>
      </trkpt>
      <trkpt lat="45.827085971832275" lon="9.188733100891113">
        <ele>916.273681640625</ele>
        <time>2006-01-08T10:46:17Z</time>
      </trkpt>
      <trkpt lat="45.827171802520752" lon="9.188754558563232">
        <ele>915.793212890625</ele>
        <time>2006-01-08T10:46:26Z</time>
      </trkpt>
      <trkpt lat="45.827257633209229" lon="9.188797473907471">
        <ele>915.3125</ele>
        <time>2006-01-08T10:46:30Z</time>
      </trkpt>
      <trkpt lat="45.827429294586182" lon="9.18907642364502">
        <ele>915.3125</ele>
        <time>2006-01-08T10:46:44Z</time>
      </trkpt>
      <trkpt lat="45.827622413635254" lon="9.18931245803833">
        <ele>915.793212890625</ele>
        <time>2006-01-08T10:47:03Z</time>
      </trkpt>
      <trkpt lat="45.827772617340088" lon="9.189419746398926">
        <ele>914.831787109375</ele>
        <time>2006-01-08T10:47:18Z</time>
      </trkpt>
      <trkpt lat="45.827901363372803" lon="9.189548492431641">
        <ele>915.793212890625</ele>
        <time>2006-01-08T10:47:30Z</time>
      </trkpt>
      <trkpt lat="45.828094482421875" lon="9.18980598449707">
        <ele>916.273681640625</ele>
        <time>2006-01-08T10:47:48Z</time>
      </trkpt>
      <trkpt lat="45.828266143798828" lon="9.190042018890381">
        <ele>915.3125</ele>
        <time>2006-01-08T10:48:00Z</time>
      </trkpt>
      <trkpt lat="45.8284592628479" lon="9.190299510955811">
        <ele>917.235107421875</ele>
        <time>2006-01-08T10:48:15Z</time>
      </trkpt>
      <trkpt lat="45.82871675491333" lon="9.190514087677002">
        <ele>917.235107421875</ele>
        <time>2006-01-08T10:48:29Z</time>
      </trkpt>
      <trkpt lat="45.829017162322998" lon="9.19055700302124">
        <ele>915.793212890625</ele>
        <time>2006-01-08T10:48:41Z</time>
      </trkpt>
      <trkpt lat="45.829596519470215" lon="9.190599918365479">
        <ele>915.793212890625</ele>
        <time>2006-01-08T10:49:03Z</time>
      </trkpt>
      <trkpt lat="45.829896926879883" lon="9.190578460693359">
        <ele>918.677001953125</ele>
        <time>2006-01-08T10:49:19Z</time>
      </trkpt>
      <trkpt lat="45.830175876617432" lon="9.190514087677002">
        <ele>919.638427734375</ele>
        <time>2006-01-08T10:49:37Z</time>
      </trkpt>
      <trkpt lat="45.830283164978027" lon="9.190471172332764">
        <ele>919.638427734375</ele>
        <time>2006-01-08T10:49:44Z</time>
      </trkpt>
      <trkpt lat="45.830283164978027" lon="9.190342426300049">
        <ele>924.445068359375</ele>
        <time>2006-01-08T10:49:55Z</time>
      </trkpt>
      <trkpt lat="45.830347537994385" lon="9.190149307250977">
        <ele>926.848388671875</ele>
        <time>2006-01-08T10:50:06Z</time>
      </trkpt>
      <trkpt lat="45.830390453338623" lon="9.189977645874023">
        <ele>928.77099609375</ele>
        <time>2006-01-08T10:50:22Z</time>
      </trkpt>
      <trkpt lat="45.8304762840271" lon="9.189977645874023">
        <ele>931.17431640625</ele>
        <time>2006-01-08T10:50:36Z</time>
      </trkpt>
      <trkpt lat="45.830540657043457" lon="9.189956188201904">
        <ele>934.538818359375</ele>
        <time>2006-01-08T10:50:49Z</time>
      </trkpt>
      <trkpt lat="45.830605030059814" lon="9.189913272857666">
        <ele>936.94189453125</ele>
        <time>2006-01-08T10:51:00Z</time>
      </trkpt>
      <trkpt lat="45.830690860748291" lon="9.189934730529785">
        <ele>940.306884765625</ele>
        <time>2006-01-08T10:51:15Z</time>
      </trkpt>
      <trkpt lat="45.830819606781006" lon="9.189956188201904">
        <ele>942.710205078125</ele>
        <time>2006-01-08T10:51:36Z</time>
      </trkpt>
      <trkpt lat="45.830862522125244" lon="9.190020561218262">
        <ele>946.07470703125</ele>
        <time>2006-01-08T10:51:49Z</time>
      </trkpt>
      <trkpt lat="45.830926895141602" lon="9.190127849578857">
        <ele>945.11328125</ele>
        <time>2006-01-08T10:52:02Z</time>
      </trkpt>
      <trkpt lat="45.83096981048584" lon="9.190256595611572">
        <ele>947.5166015625</ele>
        <time>2006-01-08T10:52:15Z</time>
      </trkpt>
      <trkpt lat="45.831077098846436" lon="9.190406799316406">
        <ele>950.400634765625</ele>
        <time>2006-01-08T10:52:34Z</time>
      </trkpt>
      <trkpt lat="45.831141471862793" lon="9.19055700302124">
        <ele>954.726318359375</ele>
        <time>2006-01-08T10:52:51Z</time>
      </trkpt>
      <trkpt lat="45.83122730255127" lon="9.190599918365479">
        <ele>956.16845703125</ele>
        <time>2006-01-08T10:53:04Z</time>
      </trkpt>
      <trkpt lat="45.831334590911865" lon="9.190621376037598">
        <ele>958.09130859375</ele>
        <time>2006-01-08T10:53:21Z</time>
      </trkpt>
      <trkpt lat="45.831334590911865" lon="9.190642833709717">
        <ele>961.9365234375</ele>
        <time>2006-01-08T10:53:36Z</time>
      </trkpt>
      <trkpt lat="45.831420421600342" lon="9.190599918365479">
        <ele>963.37841796875</ele>
        <time>2006-01-08T10:54:03Z</time>
      </trkpt>
      <trkpt lat="45.831549167633057" lon="9.190535545349121">
        <ele>963.37841796875</ele>
        <time>2006-01-08T10:54:15Z</time>
      </trkpt>
      <trkpt lat="45.831570625305176" lon="9.190535545349121">
        <ele>962.4169921875</ele>
        <time>2006-01-08T10:54:34Z</time>
      </trkpt>
      <trkpt lat="45.831634998321533" lon="9.190514087677002">
        <ele>961.455810546875</ele>
        <time>2006-01-08T10:54:42Z</time>
      </trkpt>
      <trkpt lat="45.831828117370605" lon="9.190621376037598">
        <ele>960.97509765625</ele>
        <time>2006-01-08T10:54:57Z</time>
      </trkpt>
      <trkpt lat="45.832021236419678" lon="9.190685749053955">
        <ele>961.9365234375</ele>
        <time>2006-01-08T10:55:09Z</time>
      </trkpt>
      <trkpt lat="45.832192897796631" lon="9.190707206726074">
        <ele>961.455810546875</ele>
        <time>2006-01-08T10:55:21Z</time>
      </trkpt>
      <trkpt lat="45.832364559173584" lon="9.190664291381836">
        <ele>962.897705078125</ele>
        <time>2006-01-08T10:55:34Z</time>
      </trkpt>
      <trkpt lat="45.832514762878418" lon="9.190728664398193">
        <ele>965.301025390625</ele>
        <time>2006-01-08T10:55:49Z</time>
      </trkpt>
      <trkpt lat="45.832536220550537" lon="9.190750122070313">
        <ele>965.301025390625</ele>
        <time>2006-01-08T10:55:51Z</time>
      </trkpt>
      <trkpt lat="45.832686424255371" lon="9.190921783447266">
        <ele>967.2236328125</ele>
        <time>2006-01-08T10:56:06Z</time>
      </trkpt>
      <trkpt lat="45.832729339599609" lon="9.190943241119385">
        <ele>966.742919921875</ele>
        <time>2006-01-08T10:56:17Z</time>
      </trkpt>
      <trkpt lat="45.832750797271729" lon="9.190964698791504">
        <ele>966.26220703125</ele>
        <time>2006-01-08T10:56:29Z</time>
      </trkpt>
      <trkpt lat="45.832815170288086" lon="9.191029071807861">
        <ele>967.7041015625</ele>
        <time>2006-01-08T10:56:43Z</time>
      </trkpt>
      <trkpt lat="45.832858085632324" lon="9.191050529479981">
        <ele>969.146240234375</ele>
        <time>2006-01-08T10:56:53Z</time>
      </trkpt>
      <trkpt lat="45.83296537399292" lon="9.191200733184815">
        <ele>971.06884765625</ele>
        <time>2006-01-08T10:57:16Z</time>
      </trkpt>
      <trkpt lat="45.833051204681396" lon="9.191222190856934">
        <ele>972.99169921875</ele>
        <time>2006-01-08T10:57:29Z</time>
      </trkpt>
      <trkpt lat="45.833094120025635" lon="9.191200733184815">
        <ele>974.43359375</ele>
        <time>2006-01-08T10:57:43Z</time>
      </trkpt>
      <trkpt lat="45.833158493041992" lon="9.191200733184815">
        <ele>974.43359375</ele>
        <time>2006-01-08T10:57:56Z</time>
      </trkpt>
      <trkpt lat="45.833179950714111" lon="9.191200733184815">
        <ele>972.99169921875</ele>
        <time>2006-01-08T10:58:13Z</time>
      </trkpt>
      <trkpt lat="45.83322286605835" lon="9.191157817840576">
        <ele>975.87548828125</ele>
        <time>2006-01-08T10:58:22Z</time>
      </trkpt>
      <trkpt lat="45.833244323730469" lon="9.191114902496338">
        <ele>976.356201171875</ele>
        <time>2006-01-08T10:58:32Z</time>
      </trkpt>
      <trkpt lat="45.833244323730469" lon="9.191093444824219">
        <ele>976.8369140625</ele>
        <time>2006-01-08T10:58:59Z</time>
      </trkpt>
      <trkpt lat="45.833308696746826" lon="9.191050529479981">
        <ele>977.798095703125</ele>
        <time>2006-01-08T10:59:06Z</time>
      </trkpt>
      <trkpt lat="45.833437442779541" lon="9.190900325775147">
        <ele>978.27880859375</ele>
        <time>2006-01-08T10:59:19Z</time>
      </trkpt>
      <trkpt lat="45.833415985107422" lon="9.190900325775147">
        <ele>978.27880859375</ele>
        <time>2006-01-08T10:59:26Z</time>
      </trkpt>
      <trkpt lat="45.833437442779541" lon="9.190878868103027">
        <ele>980.68212890625</ele>
        <time>2006-01-08T10:59:41Z</time>
      </trkpt>
      <trkpt lat="45.833480358123779" lon="9.190835952758789">
        <ele>983.085205078125</ele>
        <time>2006-01-08T10:59:50Z</time>
      </trkpt>
      <trkpt lat="45.833523273468018" lon="9.190750122070313">
        <ele>983.085205078125</ele>
        <time>2006-01-08T11:00:01Z</time>
      </trkpt>
      <trkpt lat="45.833587646484375" lon="9.190621376037598">
        <ele>981.643310546875</ele>
        <time>2006-01-08T11:00:13Z</time>
      </trkpt>
      <trkpt lat="45.833673477172852" lon="9.190449714660645">
        <ele>981.162841796875</ele>
        <time>2006-01-08T11:00:24Z</time>
      </trkpt>
      <trkpt lat="45.833780765533447" lon="9.190192222595215">
        <ele>980.201416015625</ele>
        <time>2006-01-08T11:00:40Z</time>
      </trkpt>
      <trkpt lat="45.833845138549805" lon="9.190020561218262">
        <ele>980.201416015625</ele>
        <time>2006-01-08T11:00:51Z</time>
      </trkpt>
      <trkpt lat="45.833930969238281" lon="9.18982744216919">
        <ele>979.720703125</ele>
        <time>2006-01-08T11:01:05Z</time>
      </trkpt>
      <trkpt lat="45.834016799926758" lon="9.189698696136475">
        <ele>983.085205078125</ele>
        <time>2006-01-08T11:01:20Z</time>
      </trkpt>
      <trkpt lat="45.834124088287354" lon="9.189612865447998">
        <ele>985.008056640625</ele>
        <time>2006-01-08T11:01:41Z</time>
      </trkpt>
      <trkpt lat="45.834252834320068" lon="9.189548492431641">
        <ele>985.488525390625</ele>
        <time>2006-01-08T11:01:55Z</time>
      </trkpt>
      <trkpt lat="45.834338665008545" lon="9.189484119415283">
        <ele>988.372802734375</ele>
        <time>2006-01-08T11:02:09Z</time>
      </trkpt>
      <trkpt lat="45.834424495697021" lon="9.189355373382568">
        <ele>990.77587890625</ele>
        <time>2006-01-08T11:02:24Z</time>
      </trkpt>
      <trkpt lat="45.834510326385498" lon="9.189205169677734">
        <ele>996.063232421875</ele>
        <time>2006-01-08T11:02:48Z</time>
      </trkpt>
      <trkpt lat="45.834617614746094" lon="9.189205169677734">
        <ele>997.505126953125</ele>
        <time>2006-01-08T11:03:04Z</time>
      </trkpt>
      <trkpt lat="45.834746360778809" lon="9.189248085021973">
        <ele>1000.38916015625</ele>
        <time>2006-01-08T11:03:17Z</time>
      </trkpt>
      <trkpt lat="45.834896564483643" lon="9.189226627349854">
        <ele>1004.715087890625</ele>
        <time>2006-01-08T11:03:34Z</time>
      </trkpt>
      <trkpt lat="45.834939479827881" lon="9.18931245803833">
        <ele>1004.715087890625</ele>
        <time>2006-01-08T11:03:43Z</time>
      </trkpt>
      <trkpt lat="45.8349609375" lon="9.189333915710449">
        <ele>1004.715087890625</ele>
        <time>2006-01-08T11:03:45Z</time>
      </trkpt>
      <trkpt lat="45.835196971893311" lon="9.189591407775879">
        <ele>1004.234619140625</ele>
        <time>2006-01-08T11:04:00Z</time>
      </trkpt>
      <trkpt lat="45.835325717926025" lon="9.189698696136475">
        <ele>1003.753662109375</ele>
        <time>2006-01-08T11:04:09Z</time>
      </trkpt>
      <trkpt lat="45.835583209991455" lon="9.189870357513428">
        <ele>1002.792236328125</ele>
        <time>2006-01-08T11:04:27Z</time>
      </trkpt>
      <trkpt lat="45.835669040679932" lon="9.189913272857666">
        <ele>1003.753662109375</ele>
        <time>2006-01-08T11:04:33Z</time>
      </trkpt>
      <trkpt lat="45.835883617401123" lon="9.190170764923096">
        <ele>1002.792236328125</ele>
        <time>2006-01-08T11:04:48Z</time>
      </trkpt>
      <trkpt lat="45.836012363433838" lon="9.190363883972168">
        <ele>1003.27294921875</ele>
        <time>2006-01-08T11:05:00Z</time>
      </trkpt>
      <trkpt lat="45.83620548248291" lon="9.19055700302124">
        <ele>1003.753662109375</ele>
        <time>2006-01-08T11:05:14Z</time>
      </trkpt>
      <trkpt lat="45.836377143859863" lon="9.190599918365479">
        <ele>1004.715087890625</ele>
        <time>2006-01-08T11:05:25Z</time>
      </trkpt>
      <trkpt lat="45.836591720581055" lon="9.190342426300049">
        <ele>1008.079833984375</ele>
        <time>2006-01-08T11:05:41Z</time>
      </trkpt>
      <trkpt lat="45.836763381958008" lon="9.190170764923096">
        <ele>1009.521728515625</ele>
        <time>2006-01-08T11:05:55Z</time>
      </trkpt>
      <trkpt lat="45.836913585662842" lon="9.189999103546143">
        <ele>1009.041015625</ele>
        <time>2006-01-08T11:06:07Z</time>
      </trkpt>
      <trkpt lat="45.837020874023438" lon="9.189763069152832">
        <ele>1010.48291015625</ele>
        <time>2006-01-08T11:06:20Z</time>
      </trkpt>
      <trkpt lat="45.837042331695557" lon="9.189527034759522">
        <ele>1009.521728515625</ele>
        <time>2006-01-08T11:06:32Z</time>
      </trkpt>
      <trkpt lat="45.837085247039795" lon="9.189248085021973">
        <ele>1011.4443359375</ele>
        <time>2006-01-08T11:06:48Z</time>
      </trkpt>
      <trkpt lat="45.837128162384033" lon="9.189119338989258">
        <ele>1011.4443359375</ele>
        <time>2006-01-08T11:07:03Z</time>
      </trkpt>
      <trkpt lat="45.83721399307251" lon="9.188990592956543">
        <ele>1015.770263671875</ele>
        <time>2006-01-08T11:07:18Z</time>
      </trkpt>
      <trkpt lat="45.837299823760986" lon="9.188883304595947">
        <ele>1015.770263671875</ele>
        <time>2006-01-08T11:07:32Z</time>
      </trkpt>
      <trkpt lat="45.837385654449463" lon="9.188840389251709">
        <ele>1016.250732421875</ele>
        <time>2006-01-08T11:07:44Z</time>
      </trkpt>
      <trkpt lat="45.837407112121582" lon="9.188840389251709">
        <ele>1019.134765625</ele>
        <time>2006-01-08T11:07:54Z</time>
      </trkpt>
      <trkpt lat="45.837492942810059" lon="9.188883304595947">
        <ele>1026.3447265625</ele>
        <time>2006-01-08T11:08:34Z</time>
      </trkpt>
      <trkpt lat="45.837643146514893" lon="9.188861846923828">
        <ele>1025.38330078125</ele>
        <time>2006-01-08T11:08:54Z</time>
      </trkpt>
      <trkpt lat="45.837750434875488" lon="9.188861846923828">
        <ele>1023.94140625</ele>
        <time>2006-01-08T11:09:09Z</time>
      </trkpt>
      <trkpt lat="45.837879180908203" lon="9.188883304595947">
        <ele>1025.38330078125</ele>
        <time>2006-01-08T11:09:24Z</time>
      </trkpt>
      <trkpt lat="45.837986469268799" lon="9.188861846923828">
        <ele>1026.3447265625</ele>
        <time>2006-01-08T11:09:36Z</time>
      </trkpt>
      <trkpt lat="45.838072299957275" lon="9.188840389251709">
        <ele>1026.825439453125</ele>
        <time>2006-01-08T11:09:48Z</time>
      </trkpt>
      <trkpt lat="45.838093757629395" lon="9.18881893157959">
        <ele>1029.228515625</ele>
        <time>2006-01-08T11:09:59Z</time>
      </trkpt>
      <trkpt lat="45.838115215301514" lon="9.188797473907471">
        <ele>1030.18994140625</ele>
        <time>2006-01-08T11:10:23Z</time>
      </trkpt>
      <trkpt lat="45.838265419006348" lon="9.188539981842041">
        <ele>1030.670654296875</ele>
        <time>2006-01-08T11:10:38Z</time>
      </trkpt>
      <trkpt lat="45.838479995727539" lon="9.188368320465088">
        <ele>1032.112548828125</ele>
        <time>2006-01-08T11:10:55Z</time>
      </trkpt>
      <trkpt lat="45.838737487792969" lon="9.18832540512085">
        <ele>1032.59326171875</ele>
        <time>2006-01-08T11:11:12Z</time>
      </trkpt>
      <trkpt lat="45.83895206451416" lon="9.188261032104492">
        <ele>1031.1513671875</ele>
        <time>2006-01-08T11:11:26Z</time>
      </trkpt>
      <trkpt lat="45.839145183563232" lon="9.188175201416016">
        <ele>1031.6318359375</ele>
        <time>2006-01-08T11:11:36Z</time>
      </trkpt>
      <trkpt lat="45.839381217956543" lon="9.188003540039063">
        <ele>1033.554443359375</ele>
        <time>2006-01-08T11:11:51Z</time>
      </trkpt>
      <trkpt lat="45.839531421661377" lon="9.18806791305542">
        <ele>1036.438720703125</ele>
        <time>2006-01-08T11:12:01Z</time>
      </trkpt>
      <trkpt lat="45.839724540710449" lon="9.188239574432373">
        <ele>1036.919189453125</ele>
        <time>2006-01-08T11:12:13Z</time>
      </trkpt>
      <trkpt lat="45.839917659759521" lon="9.18832540512085">
        <ele>1038.361328125</ele>
        <time>2006-01-08T11:12:25Z</time>
      </trkpt>
      <trkpt lat="45.839982032775879" lon="9.18856143951416">
        <ele>1038.361328125</ele>
        <time>2006-01-08T11:12:37Z</time>
      </trkpt>
      <trkpt lat="45.840110778808594" lon="9.188797473907471">
        <ele>1039.80322265625</ele>
        <time>2006-01-08T11:12:51Z</time>
      </trkpt>
      <trkpt lat="45.840239524841309" lon="9.1890549659729">
        <ele>1042.20654296875</ele>
        <time>2006-01-08T11:13:06Z</time>
      </trkpt>
      <trkpt lat="45.840303897857666" lon="9.189183712005615">
        <ele>1042.20654296875</ele>
        <time>2006-01-08T11:13:15Z</time>
      </trkpt>
      <trkpt lat="45.840325355529785" lon="9.189333915710449">
        <ele>1045.09033203125</ele>
        <time>2006-01-08T11:13:27Z</time>
      </trkpt>
      <trkpt lat="45.840368270874023" lon="9.189505577087402">
        <ele>1048.454833984375</ele>
        <time>2006-01-08T11:13:44Z</time>
      </trkpt>
      <trkpt lat="45.840411186218262" lon="9.189741611480713">
        <ele>1052.30029296875</ele>
        <time>2006-01-08T11:14:04Z</time>
      </trkpt>
      <trkpt lat="45.840475559234619" lon="9.189870357513428">
        <ele>1054.22314453125</ele>
        <time>2006-01-08T11:14:17Z</time>
      </trkpt>
      <trkpt lat="45.840539932250977" lon="9.189977645874023">
        <ele>1057.10693359375</ele>
        <time>2006-01-08T11:14:30Z</time>
      </trkpt>
      <trkpt lat="45.840561389923096" lon="9.190127849578857">
        <ele>1058.068359375</ele>
        <time>2006-01-08T11:14:41Z</time>
      </trkpt>
      <trkpt lat="45.840647220611572" lon="9.190299510955811">
        <ele>1057.587646484375</ele>
        <time>2006-01-08T11:14:58Z</time>
      </trkpt>
      <trkpt lat="45.84071159362793" lon="9.190406799316406">
        <ele>1057.587646484375</ele>
        <time>2006-01-08T11:15:10Z</time>
      </trkpt>
      <trkpt lat="45.840797424316406" lon="9.190492630004883">
        <ele>1057.10693359375</ele>
        <time>2006-01-08T11:15:23Z</time>
      </trkpt>
      <trkpt lat="45.840904712677002" lon="9.190599918365479">
        <ele>1060.9521484375</ele>
        <time>2006-01-08T11:15:38Z</time>
      </trkpt>
      <trkpt lat="45.84094762802124" lon="9.190685749053955">
        <ele>1061.432861328125</ele>
        <time>2006-01-08T11:15:50Z</time>
      </trkpt>
      <trkpt lat="45.841012001037598" lon="9.190835952758789">
        <ele>1063.8359375</ele>
        <time>2006-01-08T11:16:05Z</time>
      </trkpt>
      <trkpt lat="45.841054916381836" lon="9.190986156463623">
        <ele>1066.719970703125</ele>
        <time>2006-01-08T11:16:20Z</time>
      </trkpt>
      <trkpt lat="45.841076374053955" lon="9.191029071807861">
        <ele>1067.20068359375</ele>
        <time>2006-01-08T11:16:31Z</time>
      </trkpt>
      <trkpt lat="45.841097831726074" lon="9.191114902496338">
        <ele>1061.91357421875</ele>
        <time>2006-01-08T11:17:19Z</time>
      </trkpt>
      <trkpt lat="45.841162204742432" lon="9.191243648529053">
        <ele>1065.7587890625</ele>
        <time>2006-01-08T11:17:34Z</time>
      </trkpt>
      <trkpt lat="45.841226577758789" lon="9.191329479217529">
        <ele>1068.162109375</ele>
        <time>2006-01-08T11:17:46Z</time>
      </trkpt>
      <trkpt lat="45.841333866119385" lon="9.191372394561768">
        <ele>1070.5654296875</ele>
        <time>2006-01-08T11:17:58Z</time>
      </trkpt>
      <trkpt lat="45.841398239135742" lon="9.191393852233887">
        <ele>1072.96875</ele>
        <time>2006-01-08T11:18:09Z</time>
      </trkpt>
      <trkpt lat="45.841526985168457" lon="9.191436767578125">
        <ele>1074.891357421875</ele>
        <time>2006-01-08T11:18:25Z</time>
      </trkpt>
      <trkpt lat="45.841612815856934" lon="9.191479682922363">
        <ele>1074.891357421875</ele>
        <time>2006-01-08T11:18:34Z</time>
      </trkpt>
      <trkpt lat="45.841741561889648" lon="9.191544055938721">
        <ele>1074.891357421875</ele>
        <time>2006-01-08T11:18:47Z</time>
      </trkpt>
      <trkpt lat="45.841870307922363" lon="9.191629886627197">
        <ele>1075.8525390625</ele>
        <time>2006-01-08T11:19:03Z</time>
      </trkpt>
      <trkpt lat="45.841977596282959" lon="9.191715717315674">
        <ele>1076.333251953125</ele>
        <time>2006-01-08T11:19:17Z</time>
      </trkpt>
      <trkpt lat="45.842127799987793" lon="9.19180154800415">
        <ele>1078.736572265625</ele>
        <time>2006-01-08T11:19:34Z</time>
      </trkpt>
      <trkpt lat="45.84221363067627" lon="9.191887378692627">
        <ele>1083.54296875</ele>
        <time>2006-01-08T11:19:47Z</time>
      </trkpt>
      <trkpt lat="45.842342376708984" lon="9.191973209381104">
        <ele>1084.9853515625</ele>
        <time>2006-01-08T11:20:01Z</time>
      </trkpt>
      <trkpt lat="45.842428207397461" lon="9.19205904006958">
        <ele>1085.946533203125</ele>
        <time>2006-01-08T11:20:14Z</time>
      </trkpt>
      <trkpt lat="45.842514038085937" lon="9.192144870758057">
        <ele>1086.90771484375</ele>
        <time>2006-01-08T11:20:27Z</time>
      </trkpt>
      <trkpt lat="45.842514038085937" lon="9.192166328430176">
        <ele>1084.9853515625</ele>
        <time>2006-01-08T11:20:37Z</time>
      </trkpt>
      <trkpt lat="45.842535495758057" lon="9.192187786102295">
        <ele>1086.42724609375</ele>
        <time>2006-01-08T11:21:37Z</time>
      </trkpt>
      <trkpt lat="45.842642784118652" lon="9.192295074462891">
        <ele>1087.869140625</ele>
        <time>2006-01-08T11:21:51Z</time>
      </trkpt>
      <trkpt lat="45.842728614807129" lon="9.192380905151367">
        <ele>1090.7529296875</ele>
        <time>2006-01-08T11:22:04Z</time>
      </trkpt>
      <trkpt lat="45.842814445495605" lon="9.192466735839844">
        <ele>1093.15625</ele>
        <time>2006-01-08T11:22:18Z</time>
      </trkpt>
      <trkpt lat="45.842900276184082" lon="9.192531108856201">
        <ele>1095.5595703125</ele>
        <time>2006-01-08T11:22:31Z</time>
      </trkpt>
      <trkpt lat="45.842964649200439" lon="9.19257402420044">
        <ele>1097.00146484375</ele>
        <time>2006-01-08T11:22:42Z</time>
      </trkpt>
      <trkpt lat="45.843050479888916" lon="9.192638397216797">
        <ele>1098.443359375</ele>
        <time>2006-01-08T11:22:55Z</time>
      </trkpt>
      <trkpt lat="45.843136310577393" lon="9.192724227905273">
        <ele>1100.846923828125</ele>
        <time>2006-01-08T11:23:09Z</time>
      </trkpt>
      <trkpt lat="45.843222141265869" lon="9.192788600921631">
        <ele>1101.808349609375</ele>
        <time>2006-01-08T11:23:22Z</time>
      </trkpt>
      <trkpt lat="45.843286514282227" lon="9.192852973937988">
        <ele>1103.73095703125</ele>
        <time>2006-01-08T11:23:33Z</time>
      </trkpt>
      <trkpt lat="45.843286514282227" lon="9.192852973937988">
        <ele>1104.211669921875</ele>
        <time>2006-01-08T11:23:48Z</time>
      </trkpt>
      <trkpt lat="45.843329429626465" lon="9.192895889282227">
        <ele>1105.1728515625</ele>
        <time>2006-01-08T11:23:59Z</time>
      </trkpt>
      <trkpt lat="45.843415260314941" lon="9.192981719970703">
        <ele>1107.576171875</ele>
        <time>2006-01-08T11:24:15Z</time>
      </trkpt>
      <trkpt lat="45.843501091003418" lon="9.193089008331299">
        <ele>1109.01806640625</ele>
        <time>2006-01-08T11:24:30Z</time>
      </trkpt>
      <trkpt lat="45.843586921691895" lon="9.193217754364014">
        <ele>1110.940673828125</ele>
        <time>2006-01-08T11:24:47Z</time>
      </trkpt>
      <trkpt lat="45.843651294708252" lon="9.19330358505249">
        <ele>1112.86328125</ele>
        <time>2006-01-08T11:24:59Z</time>
      </trkpt>
      <trkpt lat="45.843715667724609" lon="9.193410873413086">
        <ele>1116.708740234375</ele>
        <time>2006-01-08T11:25:15Z</time>
      </trkpt>
      <trkpt lat="45.843780040740967" lon="9.193518161773682">
        <ele>1118.63134765625</ele>
        <time>2006-01-08T11:25:28Z</time>
      </trkpt>
      <trkpt lat="45.843822956085205" lon="9.193603992462158">
        <ele>1121.995849609375</ele>
        <time>2006-01-08T11:25:40Z</time>
      </trkpt>
      <trkpt lat="45.843865871429443" lon="9.193711280822754">
        <ele>1122.957275390625</ele>
        <time>2006-01-08T11:25:53Z</time>
      </trkpt>
      <trkpt lat="45.843887329101563" lon="9.19381856918335">
        <ele>1123.91845703125</ele>
        <time>2006-01-08T11:26:06Z</time>
      </trkpt>
      <trkpt lat="45.843887329101563" lon="9.193925857543945">
        <ele>1123.91845703125</ele>
        <time>2006-01-08T11:26:19Z</time>
      </trkpt>
      <trkpt lat="45.843930244445801" lon="9.194033145904541">
        <ele>1123.91845703125</ele>
        <time>2006-01-08T11:26:31Z</time>
      </trkpt>
      <trkpt lat="45.843973159790039" lon="9.194183349609375">
        <ele>1127.283203125</ele>
        <time>2006-01-08T11:26:47Z</time>
      </trkpt>
      <trkpt lat="45.843973159790039" lon="9.194226264953613">
        <ele>1128.72509765625</ele>
        <time>2006-01-08T11:26:58Z</time>
      </trkpt>
      <trkpt lat="45.843994617462158" lon="9.19431209564209">
        <ele>1131.12841796875</ele>
        <time>2006-01-08T11:27:11Z</time>
      </trkpt>
      <trkpt lat="45.844037532806396" lon="9.194419384002686">
        <ele>1134.012451171875</ele>
        <time>2006-01-08T11:27:23Z</time>
      </trkpt>
      <trkpt lat="45.844037532806396" lon="9.194505214691162">
        <ele>1133.53173828125</ele>
        <time>2006-01-08T11:27:32Z</time>
      </trkpt>
      <trkpt lat="45.844016075134277" lon="9.194612503051758">
        <ele>1134.012451171875</ele>
        <time>2006-01-08T11:27:42Z</time>
      </trkpt>
      <trkpt lat="45.843994617462158" lon="9.194633960723877">
        <ele>1134.012451171875</ele>
        <time>2006-01-08T11:27:50Z</time>
      </trkpt>
      <trkpt lat="45.843994617462158" lon="9.194633960723877">
        <ele>1134.012451171875</ele>
        <time>2006-01-08T11:27:51Z</time>
      </trkpt>
      <trkpt lat="45.844144821166992" lon="9.19431209564209">
        <ele>1085.946533203125</ele>
        <time>2006-01-08T13:25:15Z</time>
      </trkpt>
      <trkpt lat="45.844123363494873" lon="9.194290637969971">
        <ele>1085.946533203125</ele>
        <time>2006-01-08T13:25:22Z</time>
      </trkpt>
      <trkpt lat="45.844123363494873" lon="9.194183349609375">
        <ele>1085.946533203125</ele>
        <time>2006-01-08T13:25:33Z</time>
      </trkpt>
      <trkpt lat="45.844058990478516" lon="9.194269180297852">
        <ele>1100.846923828125</ele>
        <time>2006-01-08T13:25:42Z</time>
      </trkpt>
      <trkpt lat="45.844016075134277" lon="9.194226264953613">
        <ele>1105.653564453125</ele>
        <time>2006-01-08T13:25:51Z</time>
      </trkpt>
      <trkpt lat="45.843994617462158" lon="9.194183349609375">
        <ele>1107.095458984375</ele>
        <time>2006-01-08T13:25:56Z</time>
      </trkpt>
      <trkpt lat="45.84395170211792" lon="9.19405460357666">
        <ele>1108.537353515625</ele>
        <time>2006-01-08T13:26:07Z</time>
      </trkpt>
      <trkpt lat="45.843908786773682" lon="9.194033145904541">
        <ele>1114.30517578125</ele>
        <time>2006-01-08T13:26:21Z</time>
      </trkpt>
      <trkpt lat="45.843908786773682" lon="9.194033145904541">
        <ele>1117.669921875</ele>
        <time>2006-01-08T13:26:35Z</time>
      </trkpt>
      <trkpt lat="45.843865871429443" lon="9.193925857543945">
        <ele>1118.150634765625</ele>
        <time>2006-01-08T13:26:50Z</time>
      </trkpt>
      <trkpt lat="45.843780040740967" lon="9.193625450134277">
        <ele>1114.785888671875</ele>
        <time>2006-01-08T13:27:00Z</time>
      </trkpt>
      <trkpt lat="45.843629837036133" lon="9.193346500396729">
        <ele>1109.498779296875</ele>
        <time>2006-01-08T13:27:10Z</time>
      </trkpt>
      <trkpt lat="45.843436717987061" lon="9.193089008331299">
        <ele>1105.1728515625</ele>
        <time>2006-01-08T13:27:20Z</time>
      </trkpt>
      <trkpt lat="45.843286514282227" lon="9.192895889282227">
        <ele>1104.692138671875</ele>
        <time>2006-01-08T13:27:29Z</time>
      </trkpt>
      <trkpt lat="45.843071937561035" lon="9.192702770233154">
        <ele>1100.366455078125</ele>
        <time>2006-01-08T13:27:39Z</time>
      </trkpt>
      <trkpt lat="45.842771530151367" lon="9.192488193511963">
        <ele>1095.5595703125</ele>
        <time>2006-01-08T13:27:50Z</time>
      </trkpt>
      <trkpt lat="45.842535495758057" lon="9.192252159118652">
        <ele>1089.791748046875</ele>
        <time>2006-01-08T13:27:57Z</time>
      </trkpt>
      <trkpt lat="45.842235088348389" lon="9.191908836364746">
        <ele>1085.946533203125</ele>
        <time>2006-01-08T13:28:06Z</time>
      </trkpt>
      <trkpt lat="45.842084884643555" lon="9.191780090332031">
        <ele>1084.504638671875</ele>
        <time>2006-01-08T13:28:11Z</time>
      </trkpt>
      <trkpt lat="45.841870307922363" lon="9.191651344299316">
        <ele>1081.620361328125</ele>
        <time>2006-01-08T13:28:16Z</time>
      </trkpt>
      <trkpt lat="45.841548442840576" lon="9.191415309906006">
        <ele>1078.255859375</ele>
        <time>2006-01-08T13:28:24Z</time>
      </trkpt>
      <trkpt lat="45.841376781463623" lon="9.191372394561768">
        <ele>1077.294677734375</ele>
        <time>2006-01-08T13:28:29Z</time>
      </trkpt>
      <trkpt lat="45.84120512008667" lon="9.19130802154541">
        <ele>1075.8525390625</ele>
        <time>2006-01-08T13:28:35Z</time>
      </trkpt>
      <trkpt lat="45.841097831726074" lon="9.1910719871521">
        <ele>1072.00732421875</ele>
        <time>2006-01-08T13:28:41Z</time>
      </trkpt>
      <trkpt lat="45.840969085693359" lon="9.190771579742432">
        <ele>1068.642822265625</ele>
        <time>2006-01-08T13:28:49Z</time>
      </trkpt>
      <trkpt lat="45.840840339660645" lon="9.19055700302124">
        <ele>1066.2392578125</ele>
        <time>2006-01-08T13:28:53Z</time>
      </trkpt>
      <trkpt lat="45.840561389923096" lon="9.190084934234619">
        <ele>1062.874755859375</ele>
        <time>2006-01-08T13:29:02Z</time>
      </trkpt>
      <trkpt lat="45.840368270874023" lon="9.18956995010376">
        <ele>1058.068359375</ele>
        <time>2006-01-08T13:29:12Z</time>
      </trkpt>
      <trkpt lat="45.840110778808594" lon="9.188776016235352">
        <ele>1050.858154296875</ele>
        <time>2006-01-08T13:29:25Z</time>
      </trkpt>
      <trkpt lat="45.839896202087402" lon="9.188282489776611">
        <ele>1047.012939453125</ele>
        <time>2006-01-08T13:29:33Z</time>
      </trkpt>
      <trkpt lat="45.839724540710449" lon="9.188196659088135">
        <ele>1045.09033203125</ele>
        <time>2006-01-08T13:29:38Z</time>
      </trkpt>
      <trkpt lat="45.839681625366211" lon="9.188175201416016">
        <ele>1044.609619140625</ele>
        <time>2006-01-08T13:29:39Z</time>
      </trkpt>
      <trkpt lat="45.839381217956543" lon="9.187982082366943">
        <ele>1045.09033203125</ele>
        <time>2006-01-08T13:29:48Z</time>
      </trkpt>
      <trkpt lat="45.839166641235352" lon="9.188024997711182">
        <ele>1042.20654296875</ele>
        <time>2006-01-08T13:29:54Z</time>
      </trkpt>
      <trkpt lat="45.838780403137207" lon="9.18832540512085">
        <ele>1041.2451171875</ele>
        <time>2006-01-08T13:30:03Z</time>
      </trkpt>
      <trkpt lat="45.838437080383301" lon="9.188432693481445">
        <ele>1037.880615234375</ele>
        <time>2006-01-08T13:30:12Z</time>
      </trkpt>
      <trkpt lat="45.83820104598999" lon="9.188604354858398">
        <ele>1035.957763671875</ele>
        <time>2006-01-08T13:30:20Z</time>
      </trkpt>
      <trkpt lat="45.838007926940918" lon="9.188840389251709">
        <ele>1033.07373046875</ele>
        <time>2006-01-08T13:30:28Z</time>
      </trkpt>
      <trkpt lat="45.837836265563965" lon="9.188883304595947">
        <ele>1029.709228515625</ele>
        <time>2006-01-08T13:30:34Z</time>
      </trkpt>
      <trkpt lat="45.837407112121582" lon="9.188883304595947">
        <ele>1025.38330078125</ele>
        <time>2006-01-08T13:30:42Z</time>
      </trkpt>
      <trkpt lat="45.837128162384033" lon="9.1890549659729">
        <ele>1020.09619140625</ele>
        <time>2006-01-08T13:30:50Z</time>
      </trkpt>
      <trkpt lat="45.836999416351318" lon="9.189269542694092">
        <ele>1018.654052734375</ele>
        <time>2006-01-08T13:30:57Z</time>
      </trkpt>
      <trkpt lat="45.836935043334961" lon="9.189505577087402">
        <ele>1014.808837890625</ele>
        <time>2006-01-08T13:31:05Z</time>
      </trkpt>
      <trkpt lat="45.83695650100708" lon="9.189634323120117">
        <ele>1013.847412109375</ele>
        <time>2006-01-08T13:31:15Z</time>
      </trkpt>
      <trkpt lat="45.836977958679199" lon="9.18980598449707">
        <ele>1011.4443359375</ele>
        <time>2006-01-08T13:31:27Z</time>
      </trkpt>
      <trkpt lat="45.836935043334961" lon="9.189913272857666">
        <ele>1009.521728515625</ele>
        <time>2006-01-08T13:31:37Z</time>
      </trkpt>
      <trkpt lat="45.836913585662842" lon="9.189956188201904">
        <ele>1009.041015625</ele>
        <time>2006-01-08T13:31:40Z</time>
      </trkpt>
      <trkpt lat="45.836849212646484" lon="9.190084934234619">
        <ele>1008.560302734375</ele>
        <time>2006-01-08T13:31:51Z</time>
      </trkpt>
      <trkpt lat="45.836741924285889" lon="9.190213680267334">
        <ele>1007.118408203125</ele>
        <time>2006-01-08T13:32:04Z</time>
      </trkpt>
      <trkpt lat="45.836613178253174" lon="9.190342426300049">
        <ele>1006.6376953125</ele>
        <time>2006-01-08T13:32:18Z</time>
      </trkpt>
      <trkpt lat="45.836505889892578" lon="9.190471172332764">
        <ele>1005.19580078125</ele>
        <time>2006-01-08T13:32:31Z</time>
      </trkpt>
      <trkpt lat="45.836355686187744" lon="9.190599918365479">
        <ele>1003.27294921875</ele>
        <time>2006-01-08T13:32:45Z</time>
      </trkpt>
      <trkpt lat="45.836226940155029" lon="9.19055700302124">
        <ele>1001.8310546875</ele>
        <time>2006-01-08T13:32:58Z</time>
      </trkpt>
      <trkpt lat="45.836119651794434" lon="9.190428256988525">
        <ele>1002.3115234375</ele>
        <time>2006-01-08T13:33:12Z</time>
      </trkpt>
      <trkpt lat="45.835990905761719" lon="9.190278053283691">
        <ele>1001.8310546875</ele>
        <time>2006-01-08T13:33:24Z</time>
      </trkpt>
      <trkpt lat="45.835926532745361" lon="9.190127849578857">
        <ele>999.427734375</ele>
        <time>2006-01-08T13:33:36Z</time>
      </trkpt>
      <trkpt lat="45.835840702056885" lon="9.190042018890381">
        <ele>997.505126953125</ele>
        <time>2006-01-08T13:33:47Z</time>
      </trkpt>
      <trkpt lat="45.835690498352051" lon="9.189977645874023">
        <ele>997.98583984375</ele>
        <time>2006-01-08T13:34:00Z</time>
      </trkpt>
      <trkpt lat="45.835561752319336" lon="9.189891815185547">
        <ele>1003.27294921875</ele>
        <time>2006-01-08T13:34:14Z</time>
      </trkpt>
      <trkpt lat="45.835433006286621" lon="9.189763069152832">
        <ele>1005.676513671875</ele>
        <time>2006-01-08T13:34:26Z</time>
      </trkpt>
      <trkpt lat="45.835304260253906" lon="9.189677238464356">
        <ele>1006.156982421875</ele>
        <time>2006-01-08T13:34:39Z</time>
      </trkpt>
      <trkpt lat="45.835175514221191" lon="9.18956995010376">
        <ele>1002.3115234375</ele>
        <time>2006-01-08T13:34:52Z</time>
      </trkpt>
      <trkpt lat="45.835111141204834" lon="9.189462661743164">
        <ele>1001.8310546875</ele>
        <time>2006-01-08T13:35:02Z</time>
      </trkpt>
      <trkpt lat="45.835003852844238" lon="9.18931245803833">
        <ele>1000.38916015625</ele>
        <time>2006-01-08T13:35:15Z</time>
      </trkpt>
      <trkpt lat="45.834875106811523" lon="9.189205169677734">
        <ele>1000.38916015625</ele>
        <time>2006-01-08T13:35:25Z</time>
      </trkpt>
      <trkpt lat="45.834724903106689" lon="9.189205169677734">
        <ele>998.947021484375</ele>
        <time>2006-01-08T13:35:29Z</time>
      </trkpt>
      <trkpt lat="45.834596157073975" lon="9.189183712005615">
        <ele>997.98583984375</ele>
        <time>2006-01-08T13:35:33Z</time>
      </trkpt>
      <trkpt lat="45.834488868713379" lon="9.189291000366211">
        <ele>996.5439453125</ele>
        <time>2006-01-08T13:35:37Z</time>
      </trkpt>
      <trkpt lat="45.834403038024902" lon="9.189398288726807">
        <ele>996.063232421875</ele>
        <time>2006-01-08T13:35:40Z</time>
      </trkpt>
      <trkpt lat="45.834274291992188" lon="9.189505577087402">
        <ele>993.659912109375</ele>
        <time>2006-01-08T13:35:44Z</time>
      </trkpt>
      <trkpt lat="45.834145545959473" lon="9.18956995010376">
        <ele>991.7373046875</ele>
        <time>2006-01-08T13:35:47Z</time>
      </trkpt>
      <trkpt lat="45.833909511566162" lon="9.18982744216919">
        <ele>988.853515625</ele>
        <time>2006-01-08T13:35:55Z</time>
      </trkpt>
      <trkpt lat="45.833609104156494" lon="9.190406799316406">
        <ele>985.008056640625</ele>
        <time>2006-01-08T13:36:06Z</time>
      </trkpt>
      <trkpt lat="45.83345890045166" lon="9.190771579742432">
        <ele>985.008056640625</ele>
        <time>2006-01-08T13:36:13Z</time>
      </trkpt>
      <trkpt lat="45.833265781402588" lon="9.190964698791504">
        <ele>983.56591796875</ele>
        <time>2006-01-08T13:36:20Z</time>
      </trkpt>
      <trkpt lat="45.833094120025635" lon="9.191114902496338">
        <ele>980.201416015625</ele>
        <time>2006-01-08T13:36:28Z</time>
      </trkpt>
      <trkpt lat="45.832986831665039" lon="9.191157817840576">
        <ele>979.239990234375</ele>
        <time>2006-01-08T13:36:34Z</time>
      </trkpt>
      <trkpt lat="45.832836627960205" lon="9.191093444824219">
        <ele>979.239990234375</ele>
        <time>2006-01-08T13:36:44Z</time>
      </trkpt>
      <trkpt lat="45.832729339599609" lon="9.190943241119385">
        <ele>979.720703125</ele>
        <time>2006-01-08T13:36:51Z</time>
      </trkpt>
      <trkpt lat="45.832664966583252" lon="9.190878868103027">
        <ele>979.720703125</ele>
        <time>2006-01-08T13:36:53Z</time>
      </trkpt>
      <trkpt lat="45.832579135894775" lon="9.190750122070313">
        <ele>978.759521484375</ele>
        <time>2006-01-08T13:36:55Z</time>
      </trkpt>
      <trkpt lat="45.832300186157227" lon="9.190664291381836">
        <ele>976.356201171875</ele>
        <time>2006-01-08T13:37:02Z</time>
      </trkpt>
      <trkpt lat="45.832128524780273" lon="9.190664291381836">
        <ele>972.510986328125</ele>
        <time>2006-01-08T13:37:08Z</time>
      </trkpt>
      <trkpt lat="45.831871032714844" lon="9.190535545349121">
        <ele>968.66552734375</ele>
        <time>2006-01-08T13:37:15Z</time>
      </trkpt>
      <trkpt lat="45.831785202026367" lon="9.190492630004883">
        <ele>968.184814453125</ele>
        <time>2006-01-08T13:37:17Z</time>
      </trkpt>
      <trkpt lat="45.831592082977295" lon="9.190471172332764">
        <ele>967.2236328125</ele>
        <time>2006-01-08T13:37:22Z</time>
      </trkpt>
      <trkpt lat="45.831313133239746" lon="9.19055700302124">
        <ele>963.85888671875</ele>
        <time>2006-01-08T13:37:30Z</time>
      </trkpt>
      <trkpt lat="45.831162929534912" lon="9.190449714660645">
        <ele>959.052490234375</ele>
        <time>2006-01-08T13:37:36Z</time>
      </trkpt>
      <trkpt lat="45.830948352813721" lon="9.190170764923096">
        <ele>958.57177734375</ele>
        <time>2006-01-08T13:37:45Z</time>
      </trkpt>
      <trkpt lat="45.830755233764648" lon="9.189848899841309">
        <ele>955.687744140625</ele>
        <time>2006-01-08T13:37:55Z</time>
      </trkpt>
      <trkpt lat="45.830562114715576" lon="9.189763069152832">
        <ele>950.400634765625</ele>
        <time>2006-01-08T13:38:03Z</time>
      </trkpt>
      <trkpt lat="45.830347537994385" lon="9.18980598449707">
        <ele>946.07470703125</ele>
        <time>2006-01-08T13:38:11Z</time>
      </trkpt>
      <trkpt lat="45.830154418945313" lon="9.190020561218262">
        <ele>940.306884765625</ele>
        <time>2006-01-08T13:38:19Z</time>
      </trkpt>
      <trkpt lat="45.829918384552002" lon="9.190170764923096">
        <ele>934.05810546875</ele>
        <time>2006-01-08T13:38:27Z</time>
      </trkpt>
      <trkpt lat="45.829746723175049" lon="9.19032096862793">
        <ele>932.6162109375</ele>
        <time>2006-01-08T13:38:31Z</time>
      </trkpt>
      <trkpt lat="45.829403400421143" lon="9.190514087677002">
        <ele>930.212890625</ele>
        <time>2006-01-08T13:38:39Z</time>
      </trkpt>
      <trkpt lat="45.829060077667236" lon="9.190471172332764">
        <ele>928.290283203125</ele>
        <time>2006-01-08T13:38:46Z</time>
      </trkpt>
      <trkpt lat="45.828609466552734" lon="9.190428256988525">
        <ele>926.848388671875</ele>
        <time>2006-01-08T13:38:56Z</time>
      </trkpt>
      <trkpt lat="45.828416347503662" lon="9.190299510955811">
        <ele>925.886962890625</ele>
        <time>2006-01-08T13:39:02Z</time>
      </trkpt>
      <trkpt lat="45.828137397766113" lon="9.189913272857666">
        <ele>923.964111328125</ele>
        <time>2006-01-08T13:39:11Z</time>
      </trkpt>
      <trkpt lat="45.827836990356445" lon="9.18956995010376">
        <ele>919.638427734375</ele>
        <time>2006-01-08T13:39:21Z</time>
      </trkpt>
      <trkpt lat="45.827622413635254" lon="9.189376831054688">
        <ele>921.080322265625</ele>
        <time>2006-01-08T13:39:30Z</time>
      </trkpt>
      <trkpt lat="45.827600955963135" lon="9.189376831054688">
        <ele>926.36767578125</ele>
        <time>2006-01-08T13:39:36Z</time>
      </trkpt>
      <trkpt lat="45.827579498291016" lon="9.189419746398926">
        <ele>916.273681640625</ele>
        <time>2006-01-08T13:40:18Z</time>
      </trkpt>
      <trkpt lat="45.827579498291016" lon="9.189419746398926">
        <ele>917.715576171875</ele>
        <time>2006-01-08T13:40:30Z</time>
      </trkpt>
      <trkpt lat="45.827558040618896" lon="9.189398288726807">
        <ele>917.235107421875</ele>
        <time>2006-01-08T13:40:41Z</time>
      </trkpt>
      <trkpt lat="45.827429294586182" lon="9.189183712005615">
        <ele>917.235107421875</ele>
        <time>2006-01-08T13:40:52Z</time>
      </trkpt>
      <trkpt lat="45.827279090881348" lon="9.189012050628662">
        <ele>917.235107421875</ele>
        <time>2006-01-08T13:41:01Z</time>
      </trkpt>
      <trkpt lat="45.827085971832275" lon="9.188497066497803">
        <ele>914.831787109375</ele>
        <time>2006-01-08T13:41:08Z</time>
      </trkpt>
      <trkpt lat="45.82697868347168" lon="9.188668727874756">
        <ele>914.35107421875</ele>
        <time>2006-01-08T13:41:16Z</time>
      </trkpt>
      <trkpt lat="45.826699733734131" lon="9.188539981842041">
        <ele>911.947998046875</ele>
        <time>2006-01-08T13:41:26Z</time>
      </trkpt>
      <trkpt lat="45.826549530029297" lon="9.188539981842041">
        <ele>911.46728515625</ele>
        <time>2006-01-08T13:41:31Z</time>
      </trkpt>
      <trkpt lat="45.826313495635986" lon="9.188475608825684">
        <ele>911.947998046875</ele>
        <time>2006-01-08T13:41:39Z</time>
      </trkpt>
      <trkpt lat="45.826056003570557" lon="9.188346862792969">
        <ele>910.986572265625</ele>
        <time>2006-01-08T13:41:47Z</time>
      </trkpt>
      <trkpt lat="45.82597017288208" lon="9.188303947448731">
        <ele>910.505859375</ele>
        <time>2006-01-08T13:41:49Z</time>
      </trkpt>
      <trkpt lat="45.825669765472412" lon="9.187874794006348">
        <ele>908.583251953125</ele>
        <time>2006-01-08T13:41:59Z</time>
      </trkpt>
      <trkpt lat="45.825369358062744" lon="9.187295436859131">
        <ele>909.06396484375</ele>
        <time>2006-01-08T13:42:12Z</time>
      </trkpt>
      <trkpt lat="45.825262069702148" lon="9.18708086013794">
        <ele>910.025146484375</ele>
        <time>2006-01-08T13:42:21Z</time>
      </trkpt>
      <trkpt lat="45.825240612030029" lon="9.187016487121582">
        <ele>909.544677734375</ele>
        <time>2006-01-08T13:42:29Z</time>
      </trkpt>
      <trkpt lat="45.825197696685791" lon="9.186952114105225">
        <ele>909.06396484375</ele>
        <time>2006-01-08T13:42:35Z</time>
      </trkpt>
      <trkpt lat="45.825133323669434" lon="9.186758995056152">
        <ele>906.660400390625</ele>
        <time>2006-01-08T13:42:43Z</time>
      </trkpt>
      <trkpt lat="45.824918746948242" lon="9.186415672302246">
        <ele>902.33447265625</ele>
        <time>2006-01-08T13:42:53Z</time>
      </trkpt>
      <trkpt lat="45.824661254882813" lon="9.185965061187744">
        <ele>901.373291015625</ele>
        <time>2006-01-08T13:43:06Z</time>
      </trkpt>
      <trkpt lat="45.82446813583374" lon="9.185621738433838">
        <ele>899.931396484375</ele>
        <time>2006-01-08T13:43:15Z</time>
      </trkpt>
      <trkpt lat="45.824403762817383" lon="9.1855788230896">
        <ele>899.931396484375</ele>
        <time>2006-01-08T13:43:21Z</time>
      </trkpt>
      <trkpt lat="45.824382305145264" lon="9.185535907745361">
        <ele>894.64404296875</ele>
        <time>2006-01-08T13:44:49Z</time>
      </trkpt>
      <trkpt lat="45.824382305145264" lon="9.185686111450195">
        <ele>895.60546875</ele>
        <time>2006-01-08T13:44:56Z</time>
      </trkpt>
      <trkpt lat="45.824382305145264" lon="9.185729026794434">
        <ele>896.086181640625</ele>
        <time>2006-01-08T13:44:57Z</time>
      </trkpt>
      <trkpt lat="45.824553966522217" lon="9.186136722564697">
        <ele>898.0087890625</ele>
        <time>2006-01-08T13:45:09Z</time>
      </trkpt>
      <trkpt lat="45.824639797210693" lon="9.186480045318604">
        <ele>897.04736328125</ele>
        <time>2006-01-08T13:45:19Z</time>
      </trkpt>
      <trkpt lat="45.824553966522217" lon="9.186780452728272">
        <ele>898.4892578125</ele>
        <time>2006-01-08T13:45:28Z</time>
      </trkpt>
      <trkpt lat="45.824489593505859" lon="9.18708086013794">
        <ele>898.4892578125</ele>
        <time>2006-01-08T13:45:37Z</time>
      </trkpt>
      <trkpt lat="45.824511051177979" lon="9.187467098236084">
        <ele>899.45068359375</ele>
        <time>2006-01-08T13:45:49Z</time>
      </trkpt>
      <trkpt lat="45.824618339538574" lon="9.187746047973633">
        <ele>899.45068359375</ele>
        <time>2006-01-08T13:45:58Z</time>
      </trkpt>
      <trkpt lat="45.82472562789917" lon="9.18806791305542">
        <ele>899.45068359375</ele>
        <time>2006-01-08T13:46:09Z</time>
      </trkpt>
      <trkpt lat="45.824854373931885" lon="9.188368320465088">
        <ele>898.0087890625</ele>
        <time>2006-01-08T13:46:17Z</time>
      </trkpt>
      <trkpt lat="45.825068950653076" lon="9.188947677612305">
        <ele>897.528076171875</ele>
        <time>2006-01-08T13:46:30Z</time>
      </trkpt>
      <trkpt lat="45.825197696685791" lon="9.189376831054688">
        <ele>898.0087890625</ele>
        <time>2006-01-08T13:46:40Z</time>
      </trkpt>
      <trkpt lat="45.825283527374268" lon="9.189462661743164">
        <ele>897.528076171875</ele>
        <time>2006-01-08T13:46:43Z</time>
      </trkpt>
      <trkpt lat="45.825691223144531" lon="9.189591407775879">
        <ele>896.56689453125</ele>
        <time>2006-01-08T13:46:52Z</time>
      </trkpt>
      <trkpt lat="45.825798511505127" lon="9.189741611480713">
        <ele>895.124755859375</ele>
        <time>2006-01-08T13:46:57Z</time>
      </trkpt>
      <trkpt lat="45.825927257537842" lon="9.190084934234619">
        <ele>890.798583984375</ele>
        <time>2006-01-08T13:47:07Z</time>
      </trkpt>
      <trkpt lat="45.826034545898438" lon="9.190213680267334">
        <ele>889.83740234375</ele>
        <time>2006-01-08T13:47:15Z</time>
      </trkpt>
      <trkpt lat="45.826249122619629" lon="9.190342426300049">
        <ele>888.3955078125</ele>
        <time>2006-01-08T13:47:23Z</time>
      </trkpt>
      <trkpt lat="45.826485157012939" lon="9.19032096862793">
        <ele>889.356689453125</ele>
        <time>2006-01-08T13:47:33Z</time>
      </trkpt>
      <trkpt lat="45.826635360717773" lon="9.190256595611572">
        <ele>888.3955078125</ele>
        <time>2006-01-08T13:47:42Z</time>
      </trkpt>
      <trkpt lat="45.826678276062012" lon="9.190256595611572">
        <ele>887.914794921875</ele>
        <time>2006-01-08T13:47:44Z</time>
      </trkpt>
      <trkpt lat="45.826807022094727" lon="9.190428256988525">
        <ele>885.511474609375</ele>
        <time>2006-01-08T13:47:56Z</time>
      </trkpt>
      <trkpt lat="45.827085971832275" lon="9.190793037414551">
        <ele>883.5888671875</ele>
        <time>2006-01-08T13:48:08Z</time>
      </trkpt>
      <trkpt lat="45.827257633209229" lon="9.190964698791504">
        <ele>882.627685546875</ele>
        <time>2006-01-08T13:48:15Z</time>
      </trkpt>
      <trkpt lat="45.827300548553467" lon="9.190921783447266">
        <ele>882.14697265625</ele>
        <time>2006-01-08T13:48:20Z</time>
      </trkpt>
      <trkpt lat="45.827386379241943" lon="9.190750122070313">
        <ele>884.069580078125</ele>
        <time>2006-01-08T13:48:29Z</time>
      </trkpt>
      <trkpt lat="45.827515125274658" lon="9.190642833709717">
        <ele>885.511474609375</ele>
        <time>2006-01-08T13:48:37Z</time>
      </trkpt>
      <trkpt lat="45.827579498291016" lon="9.190750122070313">
        <ele>885.9921875</ele>
        <time>2006-01-08T13:48:44Z</time>
      </trkpt>
      <trkpt lat="45.827686786651611" lon="9.191007614135742">
        <ele>882.627685546875</ele>
        <time>2006-01-08T13:48:55Z</time>
      </trkpt>
      <trkpt lat="45.827836990356445" lon="9.191114902496338">
        <ele>881.666259765625</ele>
        <time>2006-01-08T13:49:05Z</time>
      </trkpt>
      <trkpt lat="45.828094482421875" lon="9.191179275512695">
        <ele>880.224365234375</ele>
        <time>2006-01-08T13:49:16Z</time>
      </trkpt>
      <trkpt lat="45.828244686126709" lon="9.191222190856934">
        <ele>882.14697265625</ele>
        <time>2006-01-08T13:49:26Z</time>
      </trkpt>
      <trkpt lat="45.828287601470947" lon="9.191222190856934">
        <ele>882.14697265625</ele>
        <time>2006-01-08T13:49:34Z</time>
      </trkpt>
      <trkpt lat="45.828373432159424" lon="9.191265106201172">
        <ele>882.627685546875</ele>
        <time>2006-01-08T13:49:43Z</time>
      </trkpt>
      <trkpt lat="45.828502178192139" lon="9.191286563873291">
        <ele>881.666259765625</ele>
        <time>2006-01-08T13:49:53Z</time>
      </trkpt>
      <trkpt lat="45.828673839569092" lon="9.191286563873291">
        <ele>880.224365234375</ele>
        <time>2006-01-08T13:50:02Z</time>
      </trkpt>
      <trkpt lat="45.828845500946045" lon="9.191265106201172">
        <ele>876.85986328125</ele>
        <time>2006-01-08T13:50:12Z</time>
      </trkpt>
      <trkpt lat="45.829038619995117" lon="9.191372394561768">
        <ele>874.93701171875</ele>
        <time>2006-01-08T13:50:22Z</time>
      </trkpt>
      <trkpt lat="45.829274654388428" lon="9.191501140594482">
        <ele>873.9755859375</ele>
        <time>2006-01-08T13:50:31Z</time>
      </trkpt>
      <trkpt lat="45.829532146453857" lon="9.191501140594482">
        <ele>872.53369140625</ele>
        <time>2006-01-08T13:50:41Z</time>
      </trkpt>
      <trkpt lat="45.82972526550293" lon="9.191479682922363">
        <ele>871.091796875</ele>
        <time>2006-01-08T13:50:51Z</time>
      </trkpt>
      <trkpt lat="45.829768180847168" lon="9.191479682922363">
        <ele>870.611083984375</ele>
        <time>2006-01-08T13:50:56Z</time>
      </trkpt>
      <trkpt lat="45.829896926879883" lon="9.191415309906006">
        <ele>873.4951171875</ele>
        <time>2006-01-08T13:51:07Z</time>
      </trkpt>
      <trkpt lat="45.830047130584717" lon="9.191372394561768">
        <ele>870.611083984375</ele>
        <time>2006-01-08T13:51:19Z</time>
      </trkpt>
      <trkpt lat="45.830111503601074" lon="9.191372394561768">
        <ele>873.014404296875</ele>
        <time>2006-01-08T13:51:28Z</time>
      </trkpt>
      <trkpt lat="45.830111503601074" lon="9.191436767578125">
        <ele>880.224365234375</ele>
        <time>2006-01-08T13:51:43Z</time>
      </trkpt>
      <trkpt lat="45.830154418945313" lon="9.191436767578125">
        <ele>881.185791015625</ele>
        <time>2006-01-08T13:52:51Z</time>
      </trkpt>
      <trkpt lat="45.830154418945313" lon="9.191758632659912">
        <ele>878.3017578125</ele>
        <time>2006-01-08T13:53:05Z</time>
      </trkpt>
      <trkpt lat="45.830261707305908" lon="9.192080497741699">
        <ele>874.456298828125</ele>
        <time>2006-01-08T13:53:17Z</time>
      </trkpt>
      <trkpt lat="45.830304622650146" lon="9.192209243774414">
        <ele>873.014404296875</ele>
        <time>2006-01-08T13:53:21Z</time>
      </trkpt>
      <trkpt lat="45.830347537994385" lon="9.192359447479248">
        <ele>872.052978515625</ele>
        <time>2006-01-08T13:53:26Z</time>
      </trkpt>
      <trkpt lat="45.830347537994385" lon="9.192659854888916">
        <ele>872.052978515625</ele>
        <time>2006-01-08T13:53:33Z</time>
      </trkpt>
      <trkpt lat="45.830347537994385" lon="9.192981719970703">
        <ele>872.052978515625</ele>
        <time>2006-01-08T13:53:41Z</time>
      </trkpt>
      <trkpt lat="45.830304622650146" lon="9.19330358505249">
        <ele>872.052978515625</ele>
        <time>2006-01-08T13:53:49Z</time>
      </trkpt>
      <trkpt lat="45.830197334289551" lon="9.19381856918335">
        <ele>872.53369140625</ele>
        <time>2006-01-08T13:54:00Z</time>
      </trkpt>
      <trkpt lat="45.830132961273193" lon="9.194376468658447">
        <ele>870.13037109375</ele>
        <time>2006-01-08T13:54:10Z</time>
      </trkpt>
      <trkpt lat="45.830132961273193" lon="9.194676876068115">
        <ele>862.920654296875</ele>
        <time>2006-01-08T13:54:19Z</time>
      </trkpt>
      <trkpt lat="45.830132961273193" lon="9.194741249084473">
        <ele>857.63330078125</ele>
        <time>2006-01-08T13:54:26Z</time>
      </trkpt>
      <trkpt lat="45.830132961273193" lon="9.194912910461426">
        <ele>849.94287109375</ele>
        <time>2006-01-08T13:54:36Z</time>
      </trkpt>
      <trkpt lat="45.830111503601074" lon="9.194955825805664">
        <ele>846.09765625</ele>
        <time>2006-01-08T13:54:43Z</time>
      </trkpt>
      <trkpt lat="45.830068588256836" lon="9.194998741149902">
        <ele>842.73291015625</ele>
        <time>2006-01-08T13:54:51Z</time>
      </trkpt>
      <trkpt lat="45.82996129989624" lon="9.195127487182617">
        <ele>836.96484375</ele>
        <time>2006-01-08T13:55:03Z</time>
      </trkpt>
      <trkpt lat="45.829918384552002" lon="9.195170402526856">
        <ele>834.0810546875</ele>
        <time>2006-01-08T13:55:06Z</time>
      </trkpt>
      <trkpt lat="45.829918384552002" lon="9.195277690887451">
        <ele>829.755126953125</ele>
        <time>2006-01-08T13:55:11Z</time>
      </trkpt>
      <trkpt lat="45.829918384552002" lon="9.195427894592285">
        <ele>826.390380859375</ele>
        <time>2006-01-08T13:55:19Z</time>
      </trkpt>
      <trkpt lat="45.829918384552002" lon="9.195470809936523">
        <ele>824.948486328125</ele>
        <time>2006-01-08T13:55:24Z</time>
      </trkpt>
      <trkpt lat="45.829896926879883" lon="9.195535182952881">
        <ele>821.103271484375</ele>
        <time>2006-01-08T13:55:30Z</time>
      </trkpt>
      <trkpt lat="45.829896926879883" lon="9.195556640625">
        <ele>821.103271484375</ele>
        <time>2006-01-08T13:55:33Z</time>
      </trkpt>
      <trkpt lat="45.829875469207764" lon="9.195685386657715">
        <ele>817.258056640625</ele>
        <time>2006-01-08T13:55:43Z</time>
      </trkpt>
      <trkpt lat="45.829875469207764" lon="9.195706844329834">
        <ele>812.451416015625</ele>
        <time>2006-01-08T13:55:52Z</time>
      </trkpt>
      <trkpt lat="45.829875469207764" lon="9.195771217346191">
        <ele>808.12548828125</ele>
        <time>2006-01-08T13:56:04Z</time>
      </trkpt>
      <trkpt lat="45.829896926879883" lon="9.195792675018311">
        <ele>806.683349609375</ele>
        <time>2006-01-08T13:56:13Z</time>
      </trkpt>
      <trkpt lat="45.829896926879883" lon="9.195835590362549">
        <ele>806.683349609375</ele>
        <time>2006-01-08T13:56:25Z</time>
      </trkpt>
      <trkpt lat="45.829896926879883" lon="9.195878505706787">
        <ele>805.72216796875</ele>
        <time>2006-01-08T13:56:32Z</time>
      </trkpt>
      <trkpt lat="45.829896926879883" lon="9.195942878723145">
        <ele>804.2802734375</ele>
        <time>2006-01-08T13:56:41Z</time>
      </trkpt>
      <trkpt lat="45.829918384552002" lon="9.196007251739502">
        <ele>801.396240234375</ele>
        <time>2006-01-08T13:56:48Z</time>
      </trkpt>
      <trkpt lat="45.829939842224121" lon="9.196028709411621">
        <ele>799.4736328125</ele>
        <time>2006-01-08T13:56:57Z</time>
      </trkpt>
      <trkpt lat="45.829939842224121" lon="9.19605016708374">
        <ele>799.954345703125</ele>
        <time>2006-01-08T13:57:14Z</time>
      </trkpt>
      <trkpt lat="45.82996129989624" lon="9.196114540100098">
        <ele>799.4736328125</ele>
        <time>2006-01-08T13:57:30Z</time>
      </trkpt>
      <trkpt lat="45.829939842224121" lon="9.196178913116455">
        <ele>797.551025390625</ele>
        <time>2006-01-08T13:57:40Z</time>
      </trkpt>
      <trkpt lat="45.829939842224121" lon="9.196200370788574">
        <ele>797.0703125</ele>
        <time>2006-01-08T13:57:47Z</time>
      </trkpt>
      <trkpt lat="45.829939842224121" lon="9.196243286132813">
        <ele>794.186279296875</ele>
        <time>2006-01-08T13:57:57Z</time>
      </trkpt>
      <trkpt lat="45.829939842224121" lon="9.196264743804932">
        <ele>792.263671875</ele>
        <time>2006-01-08T13:58:06Z</time>
      </trkpt>
      <trkpt lat="45.829939842224121" lon="9.196329116821289">
        <ele>791.30224609375</ele>
        <time>2006-01-08T13:58:12Z</time>
      </trkpt>
      <trkpt lat="45.829918384552002" lon="9.196393489837647">
        <ele>789.8603515625</ele>
        <time>2006-01-08T13:58:18Z</time>
      </trkpt>
      <trkpt lat="45.829854011535645" lon="9.196479320526123">
        <ele>787.937744140625</ele>
        <time>2006-01-08T13:58:28Z</time>
      </trkpt>
      <trkpt lat="45.829854011535645" lon="9.196522235870361">
        <ele>786.976318359375</ele>
        <time>2006-01-08T13:58:37Z</time>
      </trkpt>
      <trkpt lat="45.829854011535645" lon="9.1965651512146">
        <ele>785.534423828125</ele>
        <time>2006-01-08T13:58:49Z</time>
      </trkpt>
      <trkpt lat="45.829854011535645" lon="9.196608066558838">
        <ele>785.053955078125</ele>
        <time>2006-01-08T13:58:56Z</time>
      </trkpt>
      <trkpt lat="45.829854011535645" lon="9.196650981903076">
        <ele>784.092529296875</ele>
        <time>2006-01-08T13:59:04Z</time>
      </trkpt>
      <trkpt lat="45.829832553863525" lon="9.196693897247315">
        <ele>782.650634765625</ele>
        <time>2006-01-08T13:59:12Z</time>
      </trkpt>
      <trkpt lat="45.829832553863525" lon="9.196715354919434">
        <ele>782.650634765625</ele>
        <time>2006-01-08T13:59:21Z</time>
      </trkpt>
      <trkpt lat="45.829854011535645" lon="9.196715354919434">
        <ele>781.208740234375</ele>
        <time>2006-01-08T13:59:30Z</time>
      </trkpt>
      <trkpt lat="45.829875469207764" lon="9.196736812591553">
        <ele>780.247314453125</ele>
        <time>2006-01-08T13:59:38Z</time>
      </trkpt>
      <trkpt lat="45.829854011535645" lon="9.196758270263672">
        <ele>779.28564453125</ele>
        <time>2006-01-08T13:59:46Z</time>
      </trkpt>
      <trkpt lat="45.829854011535645" lon="9.196779727935791">
        <ele>779.28564453125</ele>
        <time>2006-01-08T13:59:52Z</time>
      </trkpt>
      <trkpt lat="45.829854011535645" lon="9.196822643280029">
        <ele>778.324462890625</ele>
        <time>2006-01-08T14:00:00Z</time>
      </trkpt>
      <trkpt lat="45.829811096191406" lon="9.196887016296387">
        <ele>776.40185546875</ele>
        <time>2006-01-08T14:00:09Z</time>
      </trkpt>
      <trkpt lat="45.829811096191406" lon="9.196951389312744">
        <ele>775.4404296875</ele>
        <time>2006-01-08T14:00:16Z</time>
      </trkpt>
      <trkpt lat="45.829768180847168" lon="9.197037220001221">
        <ele>773.99853515625</ele>
        <time>2006-01-08T14:00:25Z</time>
      </trkpt>
      <trkpt lat="45.829768180847168" lon="9.197080135345459">
        <ele>773.037353515625</ele>
        <time>2006-01-08T14:00:33Z</time>
      </trkpt>
      <trkpt lat="45.829746723175049" lon="9.197123050689697">
        <ele>771.59521484375</ele>
        <time>2006-01-08T14:00:40Z</time>
      </trkpt>
      <trkpt lat="45.829746723175049" lon="9.197144508361816">
        <ele>771.11474609375</ele>
        <time>2006-01-08T14:00:49Z</time>
      </trkpt>
      <trkpt lat="45.829768180847168" lon="9.197208881378174">
        <ele>769.192138671875</ele>
        <time>2006-01-08T14:00:57Z</time>
      </trkpt>
      <trkpt lat="45.829746723175049" lon="9.197273254394531">
        <ele>766.30810546875</ele>
        <time>2006-01-08T14:01:06Z</time>
      </trkpt>
      <trkpt lat="45.82972526550293" lon="9.197380542755127">
        <ele>764.8662109375</ele>
        <time>2006-01-08T14:01:17Z</time>
      </trkpt>
      <trkpt lat="45.82972526550293" lon="9.197444915771484">
        <ele>763.424072265625</ele>
        <time>2006-01-08T14:01:25Z</time>
      </trkpt>
      <trkpt lat="45.829703807830811" lon="9.197509288787842">
        <ele>762.462646484375</ele>
        <time>2006-01-08T14:01:33Z</time>
      </trkpt>
      <trkpt lat="45.829703807830811" lon="9.197595119476318">
        <ele>760.5400390625</ele>
        <time>2006-01-08T14:01:41Z</time>
      </trkpt>
      <trkpt lat="45.829660892486572" lon="9.197616577148438">
        <ele>758.617431640625</ele>
        <time>2006-01-08T14:01:49Z</time>
      </trkpt>
      <trkpt lat="45.829639434814453" lon="9.197573661804199">
        <ele>759.09814453125</ele>
        <time>2006-01-08T14:01:56Z</time>
      </trkpt>
      <trkpt lat="45.829575061798096" lon="9.197423458099365">
        <ele>758.617431640625</ele>
        <time>2006-01-08T14:02:05Z</time>
      </trkpt>
      <trkpt lat="45.829575061798096" lon="9.197273254394531">
        <ele>757.65625</ele>
        <time>2006-01-08T14:02:15Z</time>
      </trkpt>
      <trkpt lat="45.829553604125977" lon="9.197101593017578">
        <ele>757.65625</ele>
        <time>2006-01-08T14:02:24Z</time>
      </trkpt>
      <trkpt lat="45.829510688781738" lon="9.196865558624268">
        <ele>758.617431640625</ele>
        <time>2006-01-08T14:02:36Z</time>
      </trkpt>
      <trkpt lat="45.829489231109619" lon="9.196672439575195">
        <ele>759.578857421875</ele>
        <time>2006-01-08T14:02:46Z</time>
      </trkpt>
      <trkpt lat="45.829489231109619" lon="9.196543693542481">
        <ele>761.020751953125</ele>
        <time>2006-01-08T14:02:54Z</time>
      </trkpt>
      <trkpt lat="45.8294677734375" lon="9.196329116821289">
        <ele>759.09814453125</ele>
        <time>2006-01-08T14:03:06Z</time>
      </trkpt>
      <trkpt lat="45.8294677734375" lon="9.196286201477051">
        <ele>759.578857421875</ele>
        <time>2006-01-08T14:03:09Z</time>
      </trkpt>
      <trkpt lat="45.829424858093262" lon="9.196114540100098">
        <ele>762.462646484375</ele>
        <time>2006-01-08T14:03:20Z</time>
      </trkpt>
      <trkpt lat="45.829403400421143" lon="9.196007251739502">
        <ele>761.50146484375</ele>
        <time>2006-01-08T14:03:30Z</time>
      </trkpt>
      <trkpt lat="45.829381942749023" lon="9.195942878723145">
        <ele>761.50146484375</ele>
        <time>2006-01-08T14:03:39Z</time>
      </trkpt>
      <trkpt lat="45.829339027404785" lon="9.195835590362549">
        <ele>764.385498046875</ele>
        <time>2006-01-08T14:03:49Z</time>
      </trkpt>
      <trkpt lat="45.829317569732666" lon="9.195728302001953">
        <ele>765.346923828125</ele>
        <time>2006-01-08T14:03:58Z</time>
      </trkpt>
      <trkpt lat="45.829274654388428" lon="9.195621013641357">
        <ele>766.788818359375</ele>
        <time>2006-01-08T14:04:08Z</time>
      </trkpt>
      <trkpt lat="45.829253196716309" lon="9.195470809936523">
        <ele>767.75</ele>
        <time>2006-01-08T14:04:19Z</time>
      </trkpt>
      <trkpt lat="45.829231739044189" lon="9.195384979248047">
        <ele>768.230712890625</ele>
        <time>2006-01-08T14:04:29Z</time>
      </trkpt>
      <trkpt lat="45.829231739044189" lon="9.19532060623169">
        <ele>769.192138671875</ele>
        <time>2006-01-08T14:04:37Z</time>
      </trkpt>
      <trkpt lat="45.829231739044189" lon="9.195342063903809">
        <ele>767.26953125</ele>
        <time>2006-01-08T14:04:45Z</time>
      </trkpt>
      <trkpt lat="45.829231739044189" lon="9.19529914855957">
        <ele>762.462646484375</ele>
        <time>2006-01-08T14:05:01Z</time>
      </trkpt>
      <trkpt lat="45.82921028137207" lon="9.195213317871094">
        <ele>761.982177734375</ele>
        <time>2006-01-08T14:05:17Z</time>
      </trkpt>
      <trkpt lat="45.829188823699951" lon="9.195170402526856">
        <ele>762.462646484375</ele>
        <time>2006-01-08T14:05:26Z</time>
      </trkpt>
      <trkpt lat="45.829145908355713" lon="9.19506311416626">
        <ele>762.943359375</ele>
        <time>2006-01-08T14:05:34Z</time>
      </trkpt>
      <trkpt lat="45.829102993011475" lon="9.194934368133545">
        <ele>764.385498046875</ele>
        <time>2006-01-08T14:05:44Z</time>
      </trkpt>
      <trkpt lat="45.829060077667236" lon="9.19480562210083">
        <ele>764.8662109375</ele>
        <time>2006-01-08T14:05:54Z</time>
      </trkpt>
      <trkpt lat="45.829038619995117" lon="9.194655418395996">
        <ele>765.82763671875</ele>
        <time>2006-01-08T14:06:04Z</time>
      </trkpt>
      <trkpt lat="45.829017162322998" lon="9.194440841674805">
        <ele>771.11474609375</ele>
        <time>2006-01-08T14:06:19Z</time>
      </trkpt>
      <trkpt lat="45.828995704650879" lon="9.19431209564209">
        <ele>770.1533203125</ele>
        <time>2006-01-08T14:06:29Z</time>
      </trkpt>
      <trkpt lat="45.828995704650879" lon="9.194204807281494">
        <ele>770.1533203125</ele>
        <time>2006-01-08T14:06:41Z</time>
      </trkpt>
      <trkpt lat="45.829038619995117" lon="9.194183349609375">
        <ele>773.99853515625</ele>
        <time>2006-01-08T14:07:07Z</time>
      </trkpt>
      <trkpt lat="45.829038619995117" lon="9.194161891937256">
        <ele>770.634033203125</ele>
        <time>2006-01-08T14:07:18Z</time>
      </trkpt>
      <trkpt lat="45.829017162322998" lon="9.19405460357666">
        <ele>769.192138671875</ele>
        <time>2006-01-08T14:07:25Z</time>
      </trkpt>
      <trkpt lat="45.829017162322998" lon="9.194011688232422">
        <ele>769.192138671875</ele>
        <time>2006-01-08T14:07:32Z</time>
      </trkpt>
      <trkpt lat="45.829017162322998" lon="9.193968772888184">
        <ele>766.788818359375</ele>
        <time>2006-01-08T14:07:40Z</time>
      </trkpt>
      <trkpt lat="45.829017162322998" lon="9.193947315216065">
        <ele>766.30810546875</ele>
        <time>2006-01-08T14:07:49Z</time>
      </trkpt>
      <trkpt lat="45.828995704650879" lon="9.193904399871826">
        <ele>765.346923828125</ele>
        <time>2006-01-08T14:07:58Z</time>
      </trkpt>
      <trkpt lat="45.828952789306641" lon="9.193904399871826">
        <ele>765.346923828125</ele>
        <time>2006-01-08T14:08:04Z</time>
      </trkpt>
      <trkpt lat="45.828845500946045" lon="9.193968772888184">
        <ele>765.346923828125</ele>
        <time>2006-01-08T14:08:14Z</time>
      </trkpt>
      <trkpt lat="45.828845500946045" lon="9.194011688232422">
        <ele>765.82763671875</ele>
        <time>2006-01-08T14:08:23Z</time>
      </trkpt>
      <trkpt lat="45.828802585601807" lon="9.194033145904541">
        <ele>765.346923828125</ele>
        <time>2006-01-08T14:08:33Z</time>
      </trkpt>
      <trkpt lat="45.828781127929687" lon="9.19405460357666">
        <ele>765.82763671875</ele>
        <time>2006-01-08T14:08:42Z</time>
      </trkpt>
      <trkpt lat="45.82871675491333" lon="9.194076061248779">
        <ele>764.385498046875</ele>
        <time>2006-01-08T14:09:11Z</time>
      </trkpt>
      <trkpt lat="45.828695297241211" lon="9.194140434265137">
        <ele>781.689208984375</ele>
        <time>2006-01-08T14:09:44Z</time>
      </trkpt>
      <trkpt lat="45.828673839569092" lon="9.194161891937256">
        <ele>788.899169921875</ele>
        <time>2006-01-08T14:10:01Z</time>
      </trkpt>
      <trkpt lat="45.828630924224854" lon="9.194118976593018">
        <ele>782.169921875</ele>
        <time>2006-01-08T14:10:23Z</time>
      </trkpt>
      <trkpt lat="45.828566551208496" lon="9.194076061248779">
        <ele>788.41845703125</ele>
        <time>2006-01-08T14:10:33Z</time>
      </trkpt>
      <trkpt lat="45.828545093536377" lon="9.19405460357666">
        <ele>787.937744140625</ele>
        <time>2006-01-08T14:10:41Z</time>
      </trkpt>
      <trkpt lat="45.828566551208496" lon="9.194011688232422">
        <ele>786.976318359375</ele>
        <time>2006-01-08T14:10:48Z</time>
      </trkpt>
      <trkpt lat="45.828566551208496" lon="9.194033145904541">
        <ele>786.976318359375</ele>
        <time>2006-01-08T14:10:59Z</time>
      </trkpt>
      <trkpt lat="45.828738212585449" lon="9.193797111511231">
        <ele>778.324462890625</ele>
        <time>2006-01-08T14:12:00Z</time>
      </trkpt>
      <trkpt lat="45.828695297241211" lon="9.19381856918335">
        <ele>778.324462890625</ele>
        <time>2006-01-08T14:12:20Z</time>
      </trkpt>
      <trkpt lat="45.828609466552734" lon="9.193840026855469">
        <ele>773.51806640625</ele>
        <time>2006-01-08T14:12:35Z</time>
      </trkpt>
      <trkpt lat="45.828630924224854" lon="9.193797111511231">
        <ele>771.59521484375</ele>
        <time>2006-01-08T14:12:41Z</time>
      </trkpt>
      <trkpt lat="45.828609466552734" lon="9.193797111511231">
        <ele>770.634033203125</ele>
        <time>2006-01-08T14:12:47Z</time>
      </trkpt>
      <trkpt lat="45.828652381896973" lon="9.193797111511231">
        <ele>769.6728515625</ele>
        <time>2006-01-08T14:13:04Z</time>
      </trkpt>
      <trkpt lat="45.828609466552734" lon="9.19381856918335">
        <ele>771.11474609375</ele>
        <time>2006-01-08T14:13:23Z</time>
      </trkpt>
      <trkpt lat="45.828609466552734" lon="9.193840026855469">
        <ele>769.192138671875</ele>
        <time>2006-01-08T14:13:32Z</time>
      </trkpt>
      <trkpt lat="45.828588008880615" lon="9.193840026855469">
        <ele>768.71142578125</ele>
        <time>2006-01-08T14:13:39Z</time>
      </trkpt>
      <trkpt lat="45.828566551208496" lon="9.193861484527588">
        <ele>770.1533203125</ele>
        <time>2006-01-08T14:13:46Z</time>
      </trkpt>
      <trkpt lat="45.828545093536377" lon="9.193882942199707">
        <ele>772.556640625</ele>
        <time>2006-01-08T14:13:57Z</time>
      </trkpt>
      <trkpt lat="45.828523635864258" lon="9.194118976593018">
        <ele>768.230712890625</ele>
        <time>2006-01-08T14:15:15Z</time>
      </trkpt>
      <trkpt lat="45.828502178192139" lon="9.194204807281494">
        <ele>768.71142578125</ele>
        <time>2006-01-08T14:15:25Z</time>
      </trkpt>
      <trkpt lat="45.828502178192139" lon="9.194247722625732">
        <ele>768.71142578125</ele>
        <time>2006-01-08T14:15:30Z</time>
      </trkpt>
      <trkpt lat="45.82848072052002" lon="9.194333553314209">
        <ele>769.192138671875</ele>
        <time>2006-01-08T14:15:39Z</time>
      </trkpt>
      <trkpt lat="45.8284592628479" lon="9.194376468658447">
        <ele>770.1533203125</ele>
        <time>2006-01-08T14:15:50Z</time>
      </trkpt>
      <trkpt lat="45.828437805175781" lon="9.194440841674805">
        <ele>767.75</ele>
        <time>2006-01-08T14:15:57Z</time>
      </trkpt>
      <trkpt lat="45.828416347503662" lon="9.194483757019043">
        <ele>767.26953125</ele>
        <time>2006-01-08T14:16:06Z</time>
      </trkpt>
      <trkpt lat="45.828394889831543" lon="9.194483757019043">
        <ele>766.788818359375</ele>
        <time>2006-01-08T14:16:08Z</time>
      </trkpt>
      <trkpt lat="45.828351974487305" lon="9.19456958770752">
        <ele>767.75</ele>
        <time>2006-01-08T14:16:19Z</time>
      </trkpt>
      <trkpt lat="45.828330516815186" lon="9.194612503051758">
        <ele>767.26953125</ele>
        <time>2006-01-08T14:16:24Z</time>
      </trkpt>
      <trkpt lat="45.828287601470947" lon="9.194719791412354">
        <ele>768.230712890625</ele>
        <time>2006-01-08T14:16:34Z</time>
      </trkpt>
      <trkpt lat="45.828266143798828" lon="9.194827079772949">
        <ele>769.192138671875</ele>
        <time>2006-01-08T14:16:46Z</time>
      </trkpt>
      <trkpt lat="45.82822322845459" lon="9.194912910461426">
        <ele>769.6728515625</ele>
        <time>2006-01-08T14:16:56Z</time>
      </trkpt>
      <trkpt lat="45.828201770782471" lon="9.195020198822022">
        <ele>773.037353515625</ele>
        <time>2006-01-08T14:17:08Z</time>
      </trkpt>
      <trkpt lat="45.828201770782471" lon="9.195106029510498">
        <ele>775.921142578125</ele>
        <time>2006-01-08T14:17:16Z</time>
      </trkpt>
      <trkpt lat="45.828158855438232" lon="9.195191860198975">
        <ele>775.4404296875</ele>
        <time>2006-01-08T14:17:26Z</time>
      </trkpt>
      <trkpt lat="45.828137397766113" lon="9.195277690887451">
        <ele>776.40185546875</ele>
        <time>2006-01-08T14:17:35Z</time>
      </trkpt>
      <trkpt lat="45.828137397766113" lon="9.19532060623169">
        <ele>776.40185546875</ele>
        <time>2006-01-08T14:17:38Z</time>
      </trkpt>
      <trkpt lat="45.828094482421875" lon="9.195492267608643">
        <ele>776.40185546875</ele>
        <time>2006-01-08T14:17:51Z</time>
      </trkpt>
      <trkpt lat="45.828051567077637" lon="9.195621013641357">
        <ele>774.9599609375</ele>
        <time>2006-01-08T14:18:03Z</time>
      </trkpt>
      <trkpt lat="45.828008651733398" lon="9.195728302001953">
        <ele>774.9599609375</ele>
        <time>2006-01-08T14:18:14Z</time>
      </trkpt>
      <trkpt lat="45.828008651733398" lon="9.195771217346191">
        <ele>775.921142578125</ele>
        <time>2006-01-08T14:18:20Z</time>
      </trkpt>
      <trkpt lat="45.82796573638916" lon="9.195835590362549">
        <ele>774.9599609375</ele>
        <time>2006-01-08T14:18:27Z</time>
      </trkpt>
      <trkpt lat="45.827879905700684" lon="9.195942878723145">
        <ele>773.037353515625</ele>
        <time>2006-01-08T14:18:39Z</time>
      </trkpt>
      <trkpt lat="45.827858448028564" lon="9.195985794067383">
        <ele>773.51806640625</ele>
        <time>2006-01-08T14:18:45Z</time>
      </trkpt>
      <trkpt lat="45.827794075012207" lon="9.196135997772217">
        <ele>774.9599609375</ele>
        <time>2006-01-08T14:18:57Z</time>
      </trkpt>
      <trkpt lat="45.82772970199585" lon="9.196264743804932">
        <ele>775.4404296875</ele>
        <time>2006-01-08T14:19:07Z</time>
      </trkpt>
      <trkpt lat="45.827665328979492" lon="9.196457862854004">
        <ele>773.51806640625</ele>
        <time>2006-01-08T14:19:21Z</time>
      </trkpt>
      <trkpt lat="45.827600955963135" lon="9.196629524230957">
        <ele>772.556640625</ele>
        <time>2006-01-08T14:19:34Z</time>
      </trkpt>
      <trkpt lat="45.827515125274658" lon="9.196822643280029">
        <ele>773.99853515625</ele>
        <time>2006-01-08T14:19:48Z</time>
      </trkpt>
      <trkpt lat="45.82747220993042" lon="9.196929931640625">
        <ele>772.075927734375</ele>
        <time>2006-01-08T14:19:58Z</time>
      </trkpt>
      <trkpt lat="45.827407836914063" lon="9.197101593017578">
        <ele>773.99853515625</ele>
        <time>2006-01-08T14:20:11Z</time>
      </trkpt>
      <trkpt lat="45.827322006225586" lon="9.197208881378174">
        <ele>775.921142578125</ele>
        <time>2006-01-08T14:20:22Z</time>
      </trkpt>
      <trkpt lat="45.827257633209229" lon="9.19731616973877">
        <ele>775.921142578125</ele>
        <time>2006-01-08T14:20:32Z</time>
      </trkpt>
      <trkpt lat="45.827171802520752" lon="9.197402000427246">
        <ele>777.36328125</ele>
        <time>2006-01-08T14:20:44Z</time>
      </trkpt>
      <trkpt lat="45.827107429504395" lon="9.197487831115723">
        <ele>780.72802734375</ele>
        <time>2006-01-08T14:20:55Z</time>
      </trkpt>
      <trkpt lat="45.827043056488037" lon="9.197595119476318">
        <ele>780.72802734375</ele>
        <time>2006-01-08T14:21:06Z</time>
      </trkpt>
      <trkpt lat="45.827021598815918" lon="9.197659492492676">
        <ele>781.208740234375</ele>
        <time>2006-01-08T14:21:10Z</time>
      </trkpt>
      <trkpt lat="45.826957225799561" lon="9.197788238525391">
        <ele>782.650634765625</ele>
        <time>2006-01-08T14:21:21Z</time>
      </trkpt>
      <trkpt lat="45.826892852783203" lon="9.197916984558106">
        <ele>784.5732421875</ele>
        <time>2006-01-08T14:21:32Z</time>
      </trkpt>
      <trkpt lat="45.826828479766846" lon="9.197981357574463">
        <ele>784.092529296875</ele>
        <time>2006-01-08T14:21:44Z</time>
      </trkpt>
      <trkpt lat="45.826807022094727" lon="9.198024272918701">
        <ele>784.092529296875</ele>
        <time>2006-01-08T14:21:48Z</time>
      </trkpt>
      <trkpt lat="45.82672119140625" lon="9.198110103607178">
        <ele>783.61181640625</ele>
        <time>2006-01-08T14:21:57Z</time>
      </trkpt>
      <trkpt lat="45.826592445373535" lon="9.198174476623535">
        <ele>783.61181640625</ele>
        <time>2006-01-08T14:22:08Z</time>
      </trkpt>
      <trkpt lat="45.826506614685059" lon="9.198217391967773">
        <ele>783.61181640625</ele>
        <time>2006-01-08T14:22:18Z</time>
      </trkpt>
      <trkpt lat="45.826377868652344" lon="9.198260307312012">
        <ele>782.169921875</ele>
        <time>2006-01-08T14:22:29Z</time>
      </trkpt>
      <trkpt lat="45.826270580291748" lon="9.19830322265625">
        <ele>782.169921875</ele>
        <time>2006-01-08T14:22:38Z</time>
      </trkpt>
      <trkpt lat="45.826163291931152" lon="9.19830322265625">
        <ele>781.208740234375</ele>
        <time>2006-01-08T14:22:48Z</time>
      </trkpt>
      <trkpt lat="45.826120376586914" lon="9.198281764984131">
        <ele>781.689208984375</ele>
        <time>2006-01-08T14:22:54Z</time>
      </trkpt>
      <trkpt lat="45.826034545898438" lon="9.198174476623535">
        <ele>782.169921875</ele>
        <time>2006-01-08T14:23:03Z</time>
      </trkpt>
      <trkpt lat="45.82597017288208" lon="9.198110103607178">
        <ele>781.208740234375</ele>
        <time>2006-01-08T14:23:12Z</time>
      </trkpt>
      <trkpt lat="45.825948715209961" lon="9.198088645935059">
        <ele>781.208740234375</ele>
        <time>2006-01-08T14:23:14Z</time>
      </trkpt>
      <trkpt lat="45.825862884521484" lon="9.198002815246582">
        <ele>780.247314453125</ele>
        <time>2006-01-08T14:23:26Z</time>
      </trkpt>
      <trkpt lat="45.825798511505127" lon="9.197916984558106">
        <ele>778.324462890625</ele>
        <time>2006-01-08T14:23:37Z</time>
      </trkpt>
      <trkpt lat="45.825755596160889" lon="9.197852611541748">
        <ele>777.84375</ele>
        <time>2006-01-08T14:23:46Z</time>
      </trkpt>
      <trkpt lat="45.82571268081665" lon="9.197766780853272">
        <ele>777.84375</ele>
        <time>2006-01-08T14:23:54Z</time>
      </trkpt>
      <trkpt lat="45.825669765472412" lon="9.197659492492676">
        <ele>776.882568359375</ele>
        <time>2006-01-08T14:24:03Z</time>
      </trkpt>
      <trkpt lat="45.825583934783936" lon="9.19755220413208">
        <ele>775.4404296875</ele>
        <time>2006-01-08T14:24:09Z</time>
      </trkpt>
      <trkpt lat="45.825433731079102" lon="9.197359085083008">
        <ele>773.99853515625</ele>
        <time>2006-01-08T14:24:20Z</time>
      </trkpt>
      <trkpt lat="45.825304985046387" lon="9.197444915771484">
        <ele>773.51806640625</ele>
        <time>2006-01-08T14:24:31Z</time>
      </trkpt>
      <trkpt lat="45.825283527374268" lon="9.197530746459961">
        <ele>773.037353515625</ele>
        <time>2006-01-08T14:24:38Z</time>
      </trkpt>
      <trkpt lat="45.825262069702148" lon="9.197659492492676">
        <ele>773.99853515625</ele>
        <time>2006-01-08T14:24:49Z</time>
      </trkpt>
      <trkpt lat="45.82521915435791" lon="9.197723865509033">
        <ele>771.59521484375</ele>
        <time>2006-01-08T14:24:56Z</time>
      </trkpt>
      <trkpt lat="45.825197696685791" lon="9.197874069213867">
        <ele>770.1533203125</ele>
        <time>2006-01-08T14:25:08Z</time>
      </trkpt>
      <trkpt lat="45.825197696685791" lon="9.197895526885986">
        <ele>769.6728515625</ele>
        <time>2006-01-08T14:25:10Z</time>
      </trkpt>
      <trkpt lat="45.825176239013672" lon="9.198195934295654">
        <ele>765.82763671875</ele>
        <time>2006-01-08T14:25:27Z</time>
      </trkpt>
      <trkpt lat="45.825111865997314" lon="9.198367595672607">
        <ele>764.385498046875</ele>
        <time>2006-01-08T14:25:38Z</time>
      </trkpt>
      <trkpt lat="45.825047492980957" lon="9.198453426361084">
        <ele>762.462646484375</ele>
        <time>2006-01-08T14:25:46Z</time>
      </trkpt>
      <trkpt lat="45.824918746948242" lon="9.198496341705322">
        <ele>761.020751953125</ele>
        <time>2006-01-08T14:25:57Z</time>
      </trkpt>
      <trkpt lat="45.824768543243408" lon="9.198474884033203">
        <ele>759.09814453125</ele>
        <time>2006-01-08T14:26:10Z</time>
      </trkpt>
      <trkpt lat="45.824618339538574" lon="9.198431968688965">
        <ele>759.09814453125</ele>
        <time>2006-01-08T14:26:24Z</time>
      </trkpt>
      <trkpt lat="45.824489593505859" lon="9.198496341705322">
        <ele>759.578857421875</ele>
        <time>2006-01-08T14:26:38Z</time>
      </trkpt>
      <trkpt lat="45.824339389801025" lon="9.198496341705322">
        <ele>759.09814453125</ele>
        <time>2006-01-08T14:26:50Z</time>
      </trkpt>
      <trkpt lat="45.824146270751953" lon="9.198539257049561">
        <ele>757.175537109375</ele>
        <time>2006-01-08T14:27:03Z</time>
      </trkpt>
      <trkpt lat="45.824038982391357" lon="9.198603630065918">
        <ele>756.214111328125</ele>
        <time>2006-01-08T14:27:09Z</time>
      </trkpt>
      <trkpt lat="45.823824405670166" lon="9.198775291442871">
        <ele>752.849609375</ele>
        <time>2006-01-08T14:27:20Z</time>
      </trkpt>
      <trkpt lat="45.823502540588379" lon="9.19905424118042">
        <ele>749.485107421875</ele>
        <time>2006-01-08T14:27:37Z</time>
      </trkpt>
      <trkpt lat="45.823416709899902" lon="9.199097156524658">
        <ele>747.08154296875</ele>
        <time>2006-01-08T14:27:42Z</time>
      </trkpt>
      <trkpt lat="45.823416709899902" lon="9.199118614196777">
        <ele>748.523681640625</ele>
        <time>2006-01-08T14:27:50Z</time>
      </trkpt>
      <trkpt lat="45.823395252227783" lon="9.19905424118042">
        <ele>747.562255859375</ele>
        <time>2006-01-08T14:28:02Z</time>
      </trkpt>
      <trkpt lat="45.823309421539307" lon="9.199182987213135">
        <ele>747.562255859375</ele>
        <time>2006-01-08T14:28:13Z</time>
      </trkpt>
      <trkpt lat="45.82322359085083" lon="9.199268817901611">
        <ele>744.67822265625</ele>
        <time>2006-01-08T14:28:23Z</time>
      </trkpt>
      <trkpt lat="45.82322359085083" lon="9.199268817901611">
        <ele>744.67822265625</ele>
        <time>2006-01-08T14:28:24Z</time>
      </trkpt>
      <trkpt lat="45.823094844818115" lon="9.199376106262207">
        <ele>741.79443359375</ele>
        <time>2006-01-08T14:28:37Z</time>
      </trkpt>
      <trkpt lat="45.822837352752686" lon="9.199569225311279">
        <ele>738.429931640625</ele>
        <time>2006-01-08T14:28:48Z</time>
      </trkpt>
      <trkpt lat="45.82273006439209" lon="9.199612140655518">
        <ele>735.5458984375</ele>
        <time>2006-01-08T14:28:55Z</time>
      </trkpt>
      <trkpt lat="45.822622776031494" lon="9.199655055999756">
        <ele>735.0654296875</ele>
        <time>2006-01-08T14:29:06Z</time>
      </trkpt>
      <trkpt lat="45.822536945343018" lon="9.199697971343994">
        <ele>730.258544921875</ele>
        <time>2006-01-08T14:29:15Z</time>
      </trkpt>
      <trkpt lat="45.822408199310303" lon="9.19980525970459">
        <ele>727.855224609375</ele>
        <time>2006-01-08T14:29:26Z</time>
      </trkpt>
      <trkpt lat="45.822257995605469" lon="9.199934005737305">
        <ele>722.08740234375</ele>
        <time>2006-01-08T14:29:36Z</time>
      </trkpt>
      <trkpt lat="45.822172164916992" lon="9.2000412940979">
        <ele>718.722900390625</ele>
        <time>2006-01-08T14:29:45Z</time>
      </trkpt>
      <trkpt lat="45.822107791900635" lon="9.200148582458496">
        <ele>716.319580078125</ele>
        <time>2006-01-08T14:29:55Z</time>
      </trkpt>
      <trkpt lat="45.822043418884277" lon="9.200212955474854">
        <ele>713.916015625</ele>
        <time>2006-01-08T14:30:03Z</time>
      </trkpt>
      <trkpt lat="45.821957588195801" lon="9.20029878616333">
        <ele>710.551513671875</ele>
        <time>2006-01-08T14:30:15Z</time>
      </trkpt>
      <trkpt lat="45.821828842163086" lon="9.200320243835449">
        <ele>706.706298828125</ele>
        <time>2006-01-08T14:30:30Z</time>
      </trkpt>
      <trkpt lat="45.821785926818848" lon="9.200427532196045">
        <ele>705.7451171875</ele>
        <time>2006-01-08T14:30:39Z</time>
      </trkpt>
      <trkpt lat="45.821764469146729" lon="9.20055627822876">
        <ele>703.822509765625</ele>
        <time>2006-01-08T14:30:51Z</time>
      </trkpt>
      <trkpt lat="45.821807384490967" lon="9.200727939605713">
        <ele>699.496337890625</ele>
        <time>2006-01-08T14:31:03Z</time>
      </trkpt>
      <trkpt lat="45.821850299835205" lon="9.200835227966309">
        <ele>696.1318359375</ele>
        <time>2006-01-08T14:31:15Z</time>
      </trkpt>
      <trkpt lat="45.821871757507324" lon="9.200942516326904">
        <ele>693.247802734375</ele>
        <time>2006-01-08T14:31:27Z</time>
      </trkpt>
      <trkpt lat="45.821871757507324" lon="9.201028347015381">
        <ele>690.844482421875</ele>
        <time>2006-01-08T14:31:37Z</time>
      </trkpt>
      <trkpt lat="45.821893215179443" lon="9.201092720031738">
        <ele>688.44140625</ele>
        <time>2006-01-08T14:31:45Z</time>
      </trkpt>
      <trkpt lat="45.821893215179443" lon="9.201135635375977">
        <ele>685.557373046875</ele>
        <time>2006-01-08T14:31:53Z</time>
      </trkpt>
      <trkpt lat="45.821914672851562" lon="9.201200008392334">
        <ele>683.15380859375</ele>
        <time>2006-01-08T14:31:59Z</time>
      </trkpt>
      <trkpt lat="45.821936130523682" lon="9.201285839080811">
        <ele>680.750732421875</ele>
        <time>2006-01-08T14:32:08Z</time>
      </trkpt>
      <trkpt lat="45.821936130523682" lon="9.201350212097168">
        <ele>677.86669921875</ele>
        <time>2006-01-08T14:32:15Z</time>
      </trkpt>
      <trkpt lat="45.821957588195801" lon="9.201457500457764">
        <ele>675.944091796875</ele>
        <time>2006-01-08T14:32:25Z</time>
      </trkpt>
      <trkpt lat="45.821957588195801" lon="9.201478958129883">
        <ele>674.98291015625</ele>
        <time>2006-01-08T14:32:32Z</time>
      </trkpt>
      <trkpt lat="45.821936130523682" lon="9.201564788818359">
        <ele>672.57958984375</ele>
        <time>2006-01-08T14:32:42Z</time>
      </trkpt>
      <trkpt lat="45.821957588195801" lon="9.201586246490479">
        <ele>672.57958984375</ele>
        <time>2006-01-08T14:32:44Z</time>
      </trkpt>
      <trkpt lat="45.821936130523682" lon="9.201693534851074">
        <ele>670.656982421875</ele>
        <time>2006-01-08T14:32:54Z</time>
      </trkpt>
      <trkpt lat="45.821893215179443" lon="9.201736450195313">
        <ele>667.772705078125</ele>
        <time>2006-01-08T14:33:00Z</time>
      </trkpt>
      <trkpt lat="45.821850299835205" lon="9.201865196228027">
        <ele>667.292236328125</ele>
        <time>2006-01-08T14:33:12Z</time>
      </trkpt>
      <trkpt lat="45.821828842163086" lon="9.2020583152771">
        <ele>667.292236328125</ele>
        <time>2006-01-08T14:33:23Z</time>
      </trkpt>
      <trkpt lat="45.821785926818848" lon="9.202229976654053">
        <ele>665.850341796875</ele>
        <time>2006-01-08T14:33:34Z</time>
      </trkpt>
      <trkpt lat="45.82172155380249" lon="9.20229434967041">
        <ele>663.927490234375</ele>
        <time>2006-01-08T14:33:43Z</time>
      </trkpt>
      <trkpt lat="45.82172155380249" lon="9.20229434967041">
        <ele>662.005126953125</ele>
        <time>2006-01-08T14:33:53Z</time>
      </trkpt>
      <trkpt lat="45.821700096130371" lon="9.202315807342529">
        <ele>656.7177734375</ele>
        <time>2006-01-08T14:34:21Z</time>
      </trkpt>
      <trkpt lat="45.82172155380249" lon="9.202358722686768">
        <ele>651.430419921875</ele>
        <time>2006-01-08T14:35:26Z</time>
      </trkpt>
      <trkpt lat="45.821678638458252" lon="9.202229976654053">
        <ele>663.447021484375</ele>
        <time>2006-01-08T14:37:11Z</time>
      </trkpt>
      <trkpt lat="45.821592807769775" lon="9.202079772949219">
        <ele>662.005126953125</ele>
        <time>2006-01-08T14:37:17Z</time>
      </trkpt>
      <trkpt lat="45.821313858032227" lon="9.201500415802002">
        <ele>661.043701171875</ele>
        <time>2006-01-08T14:37:31Z</time>
      </trkpt>
      <trkpt lat="45.821335315704346" lon="9.201436042785645">
        <ele>661.043701171875</ele>
        <time>2006-01-08T14:37:34Z</time>
      </trkpt>
      <trkpt lat="45.821206569671631" lon="9.201071262359619">
        <ele>661.5244140625</ele>
        <time>2006-01-08T14:37:44Z</time>
      </trkpt>
      <trkpt lat="45.821185111999512" lon="9.20081377029419">
        <ele>661.5244140625</ele>
        <time>2006-01-08T14:37:51Z</time>
      </trkpt>
      <trkpt lat="45.821099281311035" lon="9.20079231262207">
        <ele>661.043701171875</ele>
        <time>2006-01-08T14:37:56Z</time>
      </trkpt>
      <trkpt lat="45.821077823638916" lon="9.200835227966309">
        <ele>661.043701171875</ele>
        <time>2006-01-08T14:37:58Z</time>
      </trkpt>
      <trkpt lat="45.821034908294678" lon="9.201285839080811">
        <ele>660.56298828125</ele>
        <time>2006-01-08T14:38:09Z</time>
      </trkpt>
      <trkpt lat="45.82097053527832" lon="9.201693534851074">
        <ele>660.082275390625</ele>
        <time>2006-01-08T14:38:18Z</time>
      </trkpt>
      <trkpt lat="45.820841789245605" lon="9.202358722686768">
        <ele>659.12109375</ele>
        <time>2006-01-08T14:38:33Z</time>
      </trkpt>
      <trkpt lat="45.820627212524414" lon="9.202916622161865">
        <ele>659.12109375</ele>
        <time>2006-01-08T14:38:46Z</time>
      </trkpt>
      <trkpt lat="45.820434093475342" lon="9.203345775604248">
        <ele>662.96630859375</ele>
        <time>2006-01-08T14:38:57Z</time>
      </trkpt>
      <trkpt lat="45.820262432098389" lon="9.203474521636963">
        <ele>663.447021484375</ele>
        <time>2006-01-08T14:39:05Z</time>
      </trkpt>
      <trkpt lat="45.820069313049316" lon="9.203646183013916">
        <ele>664.888916015625</ele>
        <time>2006-01-08T14:39:16Z</time>
      </trkpt>
      <trkpt lat="45.81998348236084" lon="9.203860759735107">
        <ele>664.888916015625</ele>
        <time>2006-01-08T14:39:24Z</time>
      </trkpt>
      <trkpt lat="45.819811820983887" lon="9.204332828521729">
        <ele>664.888916015625</ele>
        <time>2006-01-08T14:39:37Z</time>
      </trkpt>
      <trkpt lat="45.819554328918457" lon="9.204890727996826">
        <ele>664.888916015625</ele>
        <time>2006-01-08T14:39:51Z</time>
      </trkpt>
      <trkpt lat="45.819253921508789" lon="9.2055344581604">
        <ele>662.485595703125</ele>
        <time>2006-01-08T14:40:05Z</time>
      </trkpt>
      <trkpt lat="45.81923246383667" lon="9.205577373504639">
        <ele>662.485595703125</ele>
        <time>2006-01-08T14:40:06Z</time>
      </trkpt>
      <trkpt lat="45.819146633148193" lon="9.205598831176758">
        <ele>662.005126953125</ele>
        <time>2006-01-08T14:40:09Z</time>
      </trkpt>
      <trkpt lat="45.819017887115479" lon="9.205641746520996">
        <ele>662.005126953125</ele>
        <time>2006-01-08T14:40:14Z</time>
      </trkpt>
      <trkpt lat="45.818674564361572" lon="9.205620288848877">
        <ele>655.756591796875</ele>
        <time>2006-01-08T14:40:23Z</time>
      </trkpt>
      <trkpt lat="45.818438529968262" lon="9.2055344581604">
        <ele>651.9111328125</ele>
        <time>2006-01-08T14:40:30Z</time>
      </trkpt>
      <trkpt lat="45.818095207214355" lon="9.205234050750732">
        <ele>646.6240234375</ele>
        <time>2006-01-08T14:40:40Z</time>
      </trkpt>
      <trkpt lat="45.81798791885376" lon="9.205062389373779">
        <ele>646.143310546875</ele>
        <time>2006-01-08T14:40:43Z</time>
      </trkpt>
      <trkpt lat="45.8174729347229" lon="9.204461574554443">
        <ele>642.77880859375</ele>
        <time>2006-01-08T14:40:51Z</time>
      </trkpt>
      <trkpt lat="45.817322731018066" lon="9.20428991317749">
        <ele>637.491455078125</ele>
        <time>2006-01-08T14:41:00Z</time>
      </trkpt>
      <trkpt lat="45.817322731018066" lon="9.204311370849609">
        <ele>635.568603515625</ele>
        <time>2006-01-08T14:41:05Z</time>
      </trkpt>
      <trkpt lat="45.81723690032959" lon="9.204246997833252">
        <ele>625.95556640625</ele>
        <time>2006-01-08T14:41:32Z</time>
      </trkpt>
      <trkpt lat="45.817043781280518" lon="9.204204082489014">
        <ele>622.591064453125</ele>
        <time>2006-01-08T14:41:37Z</time>
      </trkpt>
      <trkpt lat="45.817000865936279" lon="9.204204082489014">
        <ele>621.629638671875</ele>
        <time>2006-01-08T14:41:38Z</time>
      </trkpt>
      <trkpt lat="45.816850662231445" lon="9.204075336456299">
        <ele>618.264892578125</ele>
        <time>2006-01-08T14:41:42Z</time>
      </trkpt>
      <trkpt lat="45.816550254821777" lon="9.203710556030273">
        <ele>615.86181640625</ele>
        <time>2006-01-08T14:41:50Z</time>
      </trkpt>
      <trkpt lat="45.81648588180542" lon="9.203689098358154">
        <ele>615.86181640625</ele>
        <time>2006-01-08T14:41:52Z</time>
      </trkpt>
      <trkpt lat="45.816593170166016" lon="9.203925132751465">
        <ele>614.419677734375</ele>
        <time>2006-01-08T14:41:57Z</time>
      </trkpt>
      <trkpt lat="45.816636085510254" lon="9.204075336456299">
        <ele>614.419677734375</ele>
        <time>2006-01-08T14:41:59Z</time>
      </trkpt>
      <trkpt lat="45.816657543182373" lon="9.204504489898682">
        <ele>613.45849609375</ele>
        <time>2006-01-08T14:42:06Z</time>
      </trkpt>
      <trkpt lat="45.816636085510254" lon="9.20454740524292">
        <ele>613.45849609375</ele>
        <time>2006-01-08T14:42:07Z</time>
      </trkpt>
      <trkpt lat="45.816507339477539" lon="9.204332828521729">
        <ele>612.0166015625</ele>
        <time>2006-01-08T14:42:12Z</time>
      </trkpt>
      <trkpt lat="45.816464424133301" lon="9.204332828521729">
        <ele>610.09375</ele>
        <time>2006-01-08T14:42:14Z</time>
      </trkpt>
      <trkpt lat="45.816357135772705" lon="9.204397201538086">
        <ele>609.132568359375</ele>
        <time>2006-01-08T14:42:18Z</time>
      </trkpt>
      <trkpt lat="45.815970897674561" lon="9.204225540161133">
        <ele>607.690673828125</ele>
        <time>2006-01-08T14:42:26Z</time>
      </trkpt>
      <trkpt lat="45.815906524658203" lon="9.204204082489014">
        <ele>607.690673828125</ele>
        <time>2006-01-08T14:42:27Z</time>
      </trkpt>
      <trkpt lat="45.815777778625488" lon="9.204118251800537">
        <ele>607.690673828125</ele>
        <time>2006-01-08T14:42:30Z</time>
      </trkpt>
      <trkpt lat="45.815777778625488" lon="9.204204082489014">
        <ele>607.690673828125</ele>
        <time>2006-01-08T14:42:33Z</time>
      </trkpt>
      <trkpt lat="45.815927982330322" lon="9.204483032226563">
        <ele>606.729248046875</ele>
        <time>2006-01-08T14:42:37Z</time>
      </trkpt>
      <trkpt lat="45.816142559051514" lon="9.204740524291992">
        <ele>606.729248046875</ele>
        <time>2006-01-08T14:42:41Z</time>
      </trkpt>
      <trkpt lat="45.816271305084229" lon="9.204912185668945">
        <ele>605.76806640625</ele>
        <time>2006-01-08T14:42:45Z</time>
      </trkpt>
      <trkpt lat="45.816164016723633" lon="9.205083847045898">
        <ele>605.76806640625</ele>
        <time>2006-01-08T14:42:48Z</time>
      </trkpt>
      <trkpt lat="45.816121101379395" lon="9.205276966094971">
        <ele>602.403076171875</ele>
        <time>2006-01-08T14:42:51Z</time>
      </trkpt>
      <trkpt lat="45.816357135772705" lon="9.205620288848877">
        <ele>601.44189453125</ele>
        <time>2006-01-08T14:42:56Z</time>
      </trkpt>
      <trkpt lat="45.816657543182373" lon="9.206092357635498">
        <ele>599.519287109375</ele>
        <time>2006-01-08T14:43:04Z</time>
      </trkpt>
      <trkpt lat="45.816679000854492" lon="9.206156730651856">
        <ele>599.03857421875</ele>
        <time>2006-01-08T14:43:05Z</time>
      </trkpt>
      <trkpt lat="45.816614627838135" lon="9.206221103668213">
        <ele>597.5966796875</ele>
        <time>2006-01-08T14:43:09Z</time>
      </trkpt>
      <trkpt lat="45.816271305084229" lon="9.206113815307617">
        <ele>589.90625</ele>
        <time>2006-01-08T14:43:15Z</time>
      </trkpt>
      <trkpt lat="45.816206932067871" lon="9.206092357635498">
        <ele>589.425537109375</ele>
        <time>2006-01-08T14:43:16Z</time>
      </trkpt>
      <trkpt lat="45.816099643707275" lon="9.206027984619141">
        <ele>588.46435546875</ele>
        <time>2006-01-08T14:43:18Z</time>
      </trkpt>
      <trkpt lat="45.815691947937012" lon="9.205684661865234">
        <ele>586.54150390625</ele>
        <time>2006-01-08T14:43:23Z</time>
      </trkpt>
      <trkpt lat="45.814790725708008" lon="9.205083847045898">
        <ele>584.618896484375</ele>
        <time>2006-01-08T14:43:33Z</time>
      </trkpt>
      <trkpt lat="45.814039707183838" lon="9.204483032226563">
        <ele>581.73486328125</ele>
        <time>2006-01-08T14:43:42Z</time>
      </trkpt>
      <trkpt lat="45.813846588134766" lon="9.204032421112061">
        <ele>576.44775390625</ele>
        <time>2006-01-08T14:43:46Z</time>
      </trkpt>
      <trkpt lat="45.813717842102051" lon="9.203710556030273">
        <ele>573.083251953125</ele>
        <time>2006-01-08T14:43:49Z</time>
      </trkpt>
      <trkpt lat="45.813653469085693" lon="9.20330286026001">
        <ele>567.315185546875</ele>
        <time>2006-01-08T14:43:53Z</time>
      </trkpt>
      <trkpt lat="45.813674926757813" lon="9.203152656555176">
        <ele>567.315185546875</ele>
        <time>2006-01-08T14:43:55Z</time>
      </trkpt>
      <trkpt lat="45.813524723052979" lon="9.203238487243652">
        <ele>567.315185546875</ele>
        <time>2006-01-08T14:44:00Z</time>
      </trkpt>
      <trkpt lat="45.813417434692383" lon="9.203345775604248">
        <ele>567.315185546875</ele>
        <time>2006-01-08T14:44:02Z</time>
      </trkpt>
      <trkpt lat="45.812902450561523" lon="9.203517436981201">
        <ele>558.663330078125</ele>
        <time>2006-01-08T14:44:08Z</time>
      </trkpt>
      <trkpt lat="45.812516212463379" lon="9.202852249145508">
        <ele>476.4705810546875</ele>
        <time>2006-01-08T14:44:12Z</time>
      </trkpt>
      <trkpt lat="45.812280178070068" lon="9.202723503112793">
        <ele>472.6253662109375</ele>
        <time>2006-01-08T14:44:15Z</time>
      </trkpt>
      <trkpt lat="45.8119797706604" lon="9.202466011047363">
        <ele>467.8187255859375</ele>
        <time>2006-01-08T14:44:19Z</time>
      </trkpt>
      <trkpt lat="45.81174373626709" lon="9.201993942260742">
        <ele>465.41552734375</ele>
        <time>2006-01-08T14:44:26Z</time>
      </trkpt>
      <trkpt lat="45.811572074890137" lon="9.201736450195313">
        <ele>466.376708984375</ele>
        <time>2006-01-08T14:44:32Z</time>
      </trkpt>
      <trkpt lat="45.811443328857422" lon="9.201436042785645">
        <ele>467.338134765625</ele>
        <time>2006-01-08T14:44:40Z</time>
      </trkpt>
      <trkpt lat="45.811164379119873" lon="9.200856685638428">
        <ele>467.338134765625</ele>
        <time>2006-01-08T14:44:54Z</time>
      </trkpt>
      <trkpt lat="45.810949802398682" lon="9.200491905212402">
        <ele>467.338134765625</ele>
        <time>2006-01-08T14:45:05Z</time>
      </trkpt>
      <trkpt lat="45.810585021972656" lon="9.20006275177002">
        <ele>467.338134765625</ele>
        <time>2006-01-08T14:45:17Z</time>
      </trkpt>
      <trkpt lat="45.810198783874512" lon="9.199504852294922">
        <ele>468.780029296875</ele>
        <time>2006-01-08T14:45:29Z</time>
      </trkpt>
      <trkpt lat="45.810134410858154" lon="9.199376106262207">
        <ele>469.2607421875</ele>
        <time>2006-01-08T14:45:31Z</time>
      </trkpt>
      <trkpt lat="45.810048580169678" lon="9.199204444885254">
        <ele>469.2607421875</ele>
        <time>2006-01-08T14:45:34Z</time>
      </trkpt>
      <trkpt lat="45.809769630432129" lon="9.198582172393799">
        <ele>469.7413330078125</ele>
        <time>2006-01-08T14:45:45Z</time>
      </trkpt>
      <trkpt lat="45.80974817276001" lon="9.198539257049561">
        <ele>469.7413330078125</ele>
        <time>2006-01-08T14:45:46Z</time>
      </trkpt>
      <trkpt lat="45.809404850006104" lon="9.197766780853272">
        <ele>468.780029296875</ele>
        <time>2006-01-08T14:45:57Z</time>
      </trkpt>
      <trkpt lat="45.809319019317627" lon="9.19755220413208">
        <ele>468.780029296875</ele>
        <time>2006-01-08T14:46:00Z</time>
      </trkpt>
      <trkpt lat="45.80925464630127" lon="9.197359085083008">
        <ele>468.780029296875</ele>
        <time>2006-01-08T14:46:03Z</time>
      </trkpt>
      <trkpt lat="45.809168815612793" lon="9.197015762329102">
        <ele>469.2607421875</ele>
        <time>2006-01-08T14:46:08Z</time>
      </trkpt>
      <trkpt lat="45.808954238891602" lon="9.196736812591553">
        <ele>468.29931640625</ele>
        <time>2006-01-08T14:46:13Z</time>
      </trkpt>
      <trkpt lat="45.80873966217041" lon="9.1965651512146">
        <ele>466.857421875</ele>
        <time>2006-01-08T14:46:17Z</time>
      </trkpt>
      <trkpt lat="45.808374881744385" lon="9.196028709411621">
        <ele>465.41552734375</ele>
        <time>2006-01-08T14:46:25Z</time>
      </trkpt>
      <trkpt lat="45.807945728302002" lon="9.195213317871094">
        <ele>463.973388671875</ele>
        <time>2006-01-08T14:46:35Z</time>
      </trkpt>
      <trkpt lat="45.807559490203857" lon="9.194655418395996">
        <ele>460.6087646484375</ele>
        <time>2006-01-08T14:46:42Z</time>
      </trkpt>
      <trkpt lat="45.807344913482666" lon="9.194355010986328">
        <ele>459.6475830078125</ele>
        <time>2006-01-08T14:46:46Z</time>
      </trkpt>
      <trkpt lat="45.807151794433594" lon="9.193646907806397">
        <ele>459.6475830078125</ele>
        <time>2006-01-08T14:46:54Z</time>
      </trkpt>
      <trkpt lat="45.807065963745117" lon="9.193432331085205">
        <ele>459.6475830078125</ele>
        <time>2006-01-08T14:46:58Z</time>
      </trkpt>
      <trkpt lat="45.806894302368164" lon="9.192981719970703">
        <ele>459.6475830078125</ele>
        <time>2006-01-08T14:47:08Z</time>
      </trkpt>
      <trkpt lat="45.806722640991211" lon="9.19257402420044">
        <ele>460.6087646484375</ele>
        <time>2006-01-08T14:47:17Z</time>
      </trkpt>
      <trkpt lat="45.806529521942139" lon="9.192380905151367">
        <ele>460.128173828125</ele>
        <time>2006-01-08T14:47:21Z</time>
      </trkpt>
      <trkpt lat="45.806379318237305" lon="9.192273616790772">
        <ele>459.1668701171875</ele>
        <time>2006-01-08T14:47:23Z</time>
      </trkpt>
      <trkpt lat="45.806164741516113" lon="9.191930294036865">
        <ele>457.7249755859375</ele>
        <time>2006-01-08T14:47:27Z</time>
      </trkpt>
      <trkpt lat="45.805842876434326" lon="9.191136360168457">
        <ele>457.2442626953125</ele>
        <time>2006-01-08T14:47:36Z</time>
      </trkpt>
      <trkpt lat="45.80549955368042" lon="9.190406799316406">
        <ele>456.7635498046875</ele>
        <time>2006-01-08T14:47:46Z</time>
      </trkpt>
      <trkpt lat="45.805370807647705" lon="9.190192222595215">
        <ele>455.321533203125</ele>
        <time>2006-01-08T14:47:49Z</time>
      </trkpt>
      <trkpt lat="45.80524206161499" lon="9.189934730529785">
        <ele>452.918212890625</ele>
        <time>2006-01-08T14:47:52Z</time>
      </trkpt>
      <trkpt lat="45.804984569549561" lon="9.189698696136475">
        <ele>450.5150146484375</ele>
        <time>2006-01-08T14:47:56Z</time>
      </trkpt>
      <trkpt lat="45.804533958435059" lon="9.189333915710449">
        <ele>446.669677734375</ele>
        <time>2006-01-08T14:48:03Z</time>
      </trkpt>
      <trkpt lat="45.804383754730225" lon="9.189205169677734">
        <ele>445.7083740234375</ele>
        <time>2006-01-08T14:48:08Z</time>
      </trkpt>
      <trkpt lat="45.804383754730225" lon="9.189183712005615">
        <ele>445.7083740234375</ele>
        <time>2006-01-08T14:48:10Z</time>
      </trkpt>
      <trkpt lat="45.804340839385986" lon="9.189248085021973">
        <ele>445.7083740234375</ele>
        <time>2006-01-08T14:48:19Z</time>
      </trkpt>
      <trkpt lat="45.804426670074463" lon="9.18931245803833">
        <ele>445.7083740234375</ele>
        <time>2006-01-08T14:48:34Z</time>
      </trkpt>
      <trkpt lat="45.804169178009033" lon="9.189720153808594">
        <ele>445.2276611328125</ele>
        <time>2006-01-08T14:48:41Z</time>
      </trkpt>
      <trkpt lat="45.803825855255127" lon="9.190256595611572">
        <ele>443.7857666015625</ele>
        <time>2006-01-08T14:48:48Z</time>
      </trkpt>
      <trkpt lat="45.803782939910889" lon="9.19032096862793">
        <ele>443.7857666015625</ele>
        <time>2006-01-08T14:48:49Z</time>
      </trkpt>
      <trkpt lat="45.803589820861816" lon="9.19032096862793">
        <ele>441.8631591796875</ele>
        <time>2006-01-08T14:48:53Z</time>
      </trkpt>
      <trkpt lat="45.803525447845459" lon="9.190213680267334">
        <ele>440.4212646484375</ele>
        <time>2006-01-08T14:48:55Z</time>
      </trkpt>
      <trkpt lat="45.803267955780029" lon="9.189720153808594">
        <ele>439.459716796875</ele>
        <time>2006-01-08T14:49:03Z</time>
      </trkpt>
      <trkpt lat="45.803289413452148" lon="9.189548492431641">
        <ele>438.49853515625</ele>
        <time>2006-01-08T14:49:06Z</time>
      </trkpt>
      <trkpt lat="45.80324649810791" lon="9.189269542694092">
        <ele>438.49853515625</ele>
        <time>2006-01-08T14:49:11Z</time>
      </trkpt>
      <trkpt lat="45.803053379058838" lon="9.188733100891113">
        <ele>438.49853515625</ele>
        <time>2006-01-08T14:49:22Z</time>
      </trkpt>
      <trkpt lat="45.803031921386719" lon="9.188690185546875">
        <ele>438.49853515625</ele>
        <time>2006-01-08T14:49:23Z</time>
      </trkpt>
      <trkpt lat="45.802624225616455" lon="9.188261032104492">
        <ele>438.49853515625</ele>
        <time>2006-01-08T14:49:37Z</time>
      </trkpt>
      <trkpt lat="45.802559852600098" lon="9.188175201416016">
        <ele>438.017822265625</ele>
        <time>2006-01-08T14:49:39Z</time>
      </trkpt>
      <trkpt lat="45.802216529846191" lon="9.188024997711182">
        <ele>435.1339111328125</ele>
        <time>2006-01-08T14:49:46Z</time>
      </trkpt>
      <trkpt lat="45.802044868469238" lon="9.187853336334229">
        <ele>435.1339111328125</ele>
        <time>2006-01-08T14:49:50Z</time>
      </trkpt>
      <trkpt lat="45.801830291748047" lon="9.187531471252441">
        <ele>435.1339111328125</ele>
        <time>2006-01-08T14:49:56Z</time>
      </trkpt>
      <trkpt lat="45.801529884338379" lon="9.186866283416748">
        <ele>435.1339111328125</ele>
        <time>2006-01-08T14:50:06Z</time>
      </trkpt>
      <trkpt lat="45.801143646240234" lon="9.186115264892578">
        <ele>435.1339111328125</ele>
        <time>2006-01-08T14:50:18Z</time>
      </trkpt>
      <trkpt lat="45.800843238830566" lon="9.185364246368408">
        <ele>434.6533203125</ele>
        <time>2006-01-08T14:50:29Z</time>
      </trkpt>
      <trkpt lat="45.800735950469971" lon="9.184999465942383">
        <ele>434.172607421875</ele>
        <time>2006-01-08T14:50:34Z</time>
      </trkpt>
      <trkpt lat="45.800693035125732" lon="9.184935092926025">
        <ele>434.172607421875</ele>
        <time>2006-01-08T14:50:35Z</time>
      </trkpt>
      <trkpt lat="45.800371170043945" lon="9.184484481811523">
        <ele>433.69189453125</ele>
        <time>2006-01-08T14:50:43Z</time>
      </trkpt>
      <trkpt lat="45.800328254699707" lon="9.184420108795166">
        <ele>433.69189453125</ele>
        <time>2006-01-08T14:50:44Z</time>
      </trkpt>
      <trkpt lat="45.800435543060303" lon="9.184162616729736">
        <ele>432.730712890625</ele>
        <time>2006-01-08T14:50:48Z</time>
      </trkpt>
      <trkpt lat="45.800585746765137" lon="9.184184074401856">
        <ele>431.7691650390625</ele>
        <time>2006-01-08T14:50:53Z</time>
      </trkpt>
      <trkpt lat="45.800628662109375" lon="9.18431282043457">
        <ele>431.28857421875</ele>
        <time>2006-01-08T14:50:57Z</time>
      </trkpt>
    </trkseg>
  </trk>

</gpx>
